<?xml version="1.0" encoding="utf-8"?>
<gpx xmlns:xsi="http://www.w3.org/2001/XMLSchema-instance" xmlns:xsd="http://www.w3.org/2001/XMLSchema" version="1.1" creator="Shapelink.com" xmlns="http://www.topografix.com/GPX/1/1" xmlns:gpxtpx="http://www.garmin.com/xmlschemas/TrackPointExtension/v1">
  <metadata>
    <name>Sykling 4.52 km, 2015-06-12</name>
    <desc></desc>
    <author><name>Mikael D</name></author> 
    <time>2015-06-12T06:35:21Z</time>
  </metadata>
  <trk>
    <name>Sykling 4.52 km, 2015-06-12</name>
    <trkseg>
      <trkpt lat="57.656589611592" lon="14.670501611792">
        <ele>362.2</ele>
        <time>2015-06-12T06:35:21Z</time>
      </trkpt>
      <trkpt lat="57.656590533601" lon="14.67049088296">
        <ele>362</ele>
        <time>2015-06-12T06:35:22Z</time>
      </trkpt>
      <trkpt lat="57.656597155302" lon="14.670472861875">
        <ele>362</ele>
        <time>2015-06-12T06:35:23Z</time>
      </trkpt>
      <trkpt lat="57.656612494179" lon="14.67044059156">
        <ele>362</ele>
        <time>2015-06-12T06:35:24Z</time>
      </trkpt>
      <trkpt lat="57.656629341798" lon="14.67040538758">
        <ele>362</ele>
        <time>2015-06-12T06:35:25Z</time>
      </trkpt>
      <trkpt lat="57.65664509977" lon="14.670377475853">
        <ele>362</ele>
        <time>2015-06-12T06:35:26Z</time>
      </trkpt>
      <trkpt lat="57.656669574918" lon="14.670344367348">
        <ele>362</ele>
        <time>2015-06-12T06:35:27Z</time>
      </trkpt>
      <trkpt lat="57.65668868565" lon="14.67031067211">
        <ele>362</ele>
        <time>2015-06-12T06:35:28Z</time>
      </trkpt>
      <trkpt lat="57.656708550753" lon="14.670267170049">
        <ele>361.8</ele>
        <time>2015-06-12T06:35:29Z</time>
      </trkpt>
      <trkpt lat="57.656733780272" lon="14.670218890305">
        <ele>361.8</ele>
        <time>2015-06-12T06:35:30Z</time>
      </trkpt>
      <trkpt lat="57.656760267076" lon="14.670170442923">
        <ele>361.8</ele>
        <time>2015-06-12T06:35:31Z</time>
      </trkpt>
      <trkpt lat="57.656787005337" lon="14.670103387723">
        <ele>361.8</ele>
        <time>2015-06-12T06:35:32Z</time>
      </trkpt>
      <trkpt lat="57.656809720286" lon="14.670032309211">
        <ele>361.6</ele>
        <time>2015-06-12T06:35:33Z</time>
      </trkpt>
      <trkpt lat="57.65682950157" lon="14.66995025041">
        <ele>361.6</ele>
        <time>2015-06-12T06:35:34Z</time>
      </trkpt>
      <trkpt lat="57.656844505171" lon="14.669930217669">
        <ele>366.8</ele>
        <time>2015-06-12T06:35:35Z</time>
      </trkpt>
      <trkpt lat="57.656876943124" lon="14.669799543848">
        <ele>370.2</ele>
        <time>2015-06-12T06:35:36Z</time>
      </trkpt>
      <trkpt lat="57.656896305313" lon="14.669705666568">
        <ele>370.8</ele>
        <time>2015-06-12T06:35:37Z</time>
      </trkpt>
      <trkpt lat="57.656900915358" lon="14.669607263062">
        <ele>365.8</ele>
        <time>2015-06-12T06:35:38Z</time>
      </trkpt>
      <trkpt lat="57.656907285602" lon="14.669514475429">
        <ele>361.8</ele>
        <time>2015-06-12T06:35:39Z</time>
      </trkpt>
      <trkpt lat="57.65691415876" lon="14.669422525986">
        <ele>359.4</ele>
        <time>2015-06-12T06:35:40Z</time>
      </trkpt>
      <trkpt lat="57.656920780461" lon="14.669328816344">
        <ele>357.4</ele>
        <time>2015-06-12T06:35:41Z</time>
      </trkpt>
      <trkpt lat="57.656927821257" lon="14.669225635155">
        <ele>356.2</ele>
        <time>2015-06-12T06:35:42Z</time>
      </trkpt>
      <trkpt lat="57.656940729383" lon="14.669131506418">
        <ele>355.4</ele>
        <time>2015-06-12T06:35:43Z</time>
      </trkpt>
      <trkpt lat="57.656979705218" lon="14.669066462874">
        <ele>354</ele>
        <time>2015-06-12T06:35:44Z</time>
      </trkpt>
      <trkpt lat="57.657032092093" lon="14.669068642168">
        <ele>353.6</ele>
        <time>2015-06-12T06:35:45Z</time>
      </trkpt>
      <trkpt lat="57.657089675746" lon="14.669100409569">
        <ele>353.6</ele>
        <time>2015-06-12T06:35:46Z</time>
      </trkpt>
      <trkpt lat="57.657145247743" lon="14.66911876593">
        <ele>353.8</ele>
        <time>2015-06-12T06:35:47Z</time>
      </trkpt>
      <trkpt lat="57.657209536916" lon="14.669152712625">
        <ele>353.6</ele>
        <time>2015-06-12T06:35:48Z</time>
      </trkpt>
      <trkpt lat="57.6572377001" lon="14.669244410611">
        <ele>353</ele>
        <time>2015-06-12T06:35:49Z</time>
      </trkpt>
      <trkpt lat="57.657237867738" lon="14.669365696704">
        <ele>352.8</ele>
        <time>2015-06-12T06:35:50Z</time>
      </trkpt>
      <trkpt lat="57.657216577712" lon="14.669497041077">
        <ele>352.2</ele>
        <time>2015-06-12T06:35:51Z</time>
      </trkpt>
      <trkpt lat="57.657202244663" lon="14.669619249179">
        <ele>351.6</ele>
        <time>2015-06-12T06:35:52Z</time>
      </trkpt>
      <trkpt lat="57.657192773116" lon="14.669742127833">
        <ele>351.4</ele>
        <time>2015-06-12T06:35:53Z</time>
      </trkpt>
      <trkpt lat="57.657232168046" lon="14.669812200517">
        <ele>346.2</ele>
        <time>2015-06-12T06:35:54Z</time>
      </trkpt>
      <trkpt lat="57.657293104459" lon="14.669867018143">
        <ele>344.4</ele>
        <time>2015-06-12T06:35:55Z</time>
      </trkpt>
      <trkpt lat="57.657353789415" lon="14.669902054485">
        <ele>342.6</ele>
        <time>2015-06-12T06:35:56Z</time>
      </trkpt>
      <trkpt lat="57.657415564018" lon="14.66993181023">
        <ele>340.4</ele>
        <time>2015-06-12T06:35:57Z</time>
      </trkpt>
      <trkpt lat="57.657481948666" lon="14.669959219043">
        <ele>338.2</ele>
        <time>2015-06-12T06:35:58Z</time>
      </trkpt>
      <trkpt lat="57.657544729097" lon="14.66998713077">
        <ele>336</ele>
        <time>2015-06-12T06:35:59Z</time>
      </trkpt>
      <trkpt lat="57.65763332578" lon="14.670027280071">
        <ele>334</ele>
        <time>2015-06-12T06:36:00Z</time>
      </trkpt>
      <trkpt lat="57.657715552219" lon="14.670062819327">
        <ele>332</ele>
        <time>2015-06-12T06:36:01Z</time>
      </trkpt>
      <trkpt lat="57.657802221065" lon="14.670097939488">
        <ele>330.6</ele>
        <time>2015-06-12T06:36:02Z</time>
      </trkpt>
      <trkpt lat="57.657887800264" lon="14.670130880355">
        <ele>329.4</ele>
        <time>2015-06-12T06:36:03Z</time>
      </trkpt>
      <trkpt lat="57.657972205997" lon="14.670176142615">
        <ele>328.2</ele>
        <time>2015-06-12T06:36:04Z</time>
      </trkpt>
      <trkpt lat="57.658060718861" lon="14.670223919445">
        <ele>328</ele>
        <time>2015-06-12T06:36:05Z</time>
      </trkpt>
      <trkpt lat="57.658113021917" lon="14.670330704851">
        <ele>325.8</ele>
        <time>2015-06-12T06:36:06Z</time>
      </trkpt>
      <trkpt lat="57.658184519524" lon="14.670424330674">
        <ele>324.8</ele>
        <time>2015-06-12T06:36:07Z</time>
      </trkpt>
      <trkpt lat="57.65825693914" lon="14.67051686685">
        <ele>324</ele>
        <time>2015-06-12T06:36:08Z</time>
      </trkpt>
      <trkpt lat="57.658319635752" lon="14.670600350574">
        <ele>323</ele>
        <time>2015-06-12T06:36:09Z</time>
      </trkpt>
      <trkpt lat="57.658394150843" lon="14.670703028849">
        <ele>322.2</ele>
        <time>2015-06-12T06:36:10Z</time>
      </trkpt>
      <trkpt lat="57.658445028976" lon="14.670778633587">
        <ele>321.2</ele>
        <time>2015-06-12T06:36:11Z</time>
      </trkpt>
      <trkpt lat="57.658533877116" lon="14.670896650739">
        <ele>320.4</ele>
        <time>2015-06-12T06:36:12Z</time>
      </trkpt>
      <trkpt lat="57.658605123266" lon="14.670981307929">
        <ele>319.8</ele>
        <time>2015-06-12T06:36:13Z</time>
      </trkpt>
      <trkpt lat="57.658661365815" lon="14.671082309824">
        <ele>319</ele>
        <time>2015-06-12T06:36:14Z</time>
      </trkpt>
      <trkpt lat="57.658696737433" lon="14.671210636713">
        <ele>318.2</ele>
        <time>2015-06-12T06:36:15Z</time>
      </trkpt>
      <trkpt lat="57.658687517343" lon="14.671353631927">
        <ele>317.2</ele>
        <time>2015-06-12T06:36:16Z</time>
      </trkpt>
      <trkpt lat="57.658646278395" lon="14.671485395395">
        <ele>316.6</ele>
        <time>2015-06-12T06:36:17Z</time>
      </trkpt>
      <trkpt lat="57.658583414145" lon="14.671605340384">
        <ele>315.8</ele>
        <time>2015-06-12T06:36:18Z</time>
      </trkpt>
      <trkpt lat="57.658524237931" lon="14.671706426098">
        <ele>315.2</ele>
        <time>2015-06-12T06:36:19Z</time>
      </trkpt>
      <trkpt lat="57.658461206043" lon="14.67182528144">
        <ele>314.8</ele>
        <time>2015-06-12T06:36:20Z</time>
      </trkpt>
      <trkpt lat="57.658404795856" lon="14.671938269452">
        <ele>314.4</ele>
        <time>2015-06-12T06:36:21Z</time>
      </trkpt>
      <trkpt lat="57.658346876927" lon="14.672056118966">
        <ele>313.6</ele>
        <time>2015-06-12T06:36:22Z</time>
      </trkpt>
      <trkpt lat="57.658295412061" lon="14.672169526073">
        <ele>313.6</ele>
        <time>2015-06-12T06:36:23Z</time>
      </trkpt>
      <trkpt lat="57.65824017534" lon="14.67227119852">
        <ele>312.8</ele>
        <time>2015-06-12T06:36:24Z</time>
      </trkpt>
      <trkpt lat="57.658177981642" lon="14.672395753554">
        <ele>312.4</ele>
        <time>2015-06-12T06:36:25Z</time>
      </trkpt>
      <trkpt lat="57.65812115236" lon="14.672509915032">
        <ele>312.2</ele>
        <time>2015-06-12T06:36:26Z</time>
      </trkpt>
      <trkpt lat="57.658064323078" lon="14.672622735406">
        <ele>311.8</ele>
        <time>2015-06-12T06:36:27Z</time>
      </trkpt>
      <trkpt lat="57.658008415805" lon="14.672735304323">
        <ele>311.6</ele>
        <time>2015-06-12T06:36:28Z</time>
      </trkpt>
      <trkpt lat="57.65795770531" lon="14.672835803304">
        <ele>311</ele>
        <time>2015-06-12T06:36:29Z</time>
      </trkpt>
      <trkpt lat="57.657896433621" lon="14.672960442157">
        <ele>310.8</ele>
        <time>2015-06-12T06:36:30Z</time>
      </trkpt>
      <trkpt lat="57.657840777805" lon="14.673074016902">
        <ele>310.4</ele>
        <time>2015-06-12T06:36:31Z</time>
      </trkpt>
      <trkpt lat="57.657786882188" lon="14.673180802308">
        <ele>310.4</ele>
        <time>2015-06-12T06:36:32Z</time>
      </trkpt>
      <trkpt lat="57.657734495313" lon="14.67328959937">
        <ele>310.4</ele>
        <time>2015-06-12T06:36:33Z</time>
      </trkpt>
      <trkpt lat="57.657686634664" lon="14.67339018217">
        <ele>310.4</ele>
        <time>2015-06-12T06:36:34Z</time>
      </trkpt>
      <trkpt lat="57.657634834522" lon="14.673500990888">
        <ele>310.2</ele>
        <time>2015-06-12T06:36:35Z</time>
      </trkpt>
      <trkpt lat="57.657579933077" lon="14.673615487642">
        <ele>310</ele>
        <time>2015-06-12T06:36:36Z</time>
      </trkpt>
      <trkpt lat="57.657526624193" lon="14.673723111238">
        <ele>309.8</ele>
        <time>2015-06-12T06:36:37Z</time>
      </trkpt>
      <trkpt lat="57.657477170983" lon="14.673826627703">
        <ele>309.8</ele>
        <time>2015-06-12T06:36:38Z</time>
      </trkpt>
      <trkpt lat="57.6574304838" lon="14.673926959046">
        <ele>309.6</ele>
        <time>2015-06-12T06:36:39Z</time>
      </trkpt>
      <trkpt lat="57.657378013106" lon="14.674037851583">
        <ele>309.4</ele>
        <time>2015-06-12T06:36:40Z</time>
      </trkpt>
      <trkpt lat="57.657332080294" lon="14.674132315596">
        <ele>309.4</ele>
        <time>2015-06-12T06:36:41Z</time>
      </trkpt>
      <trkpt lat="57.657278687591" lon="14.674242202305">
        <ele>309.4</ele>
        <time>2015-06-12T06:36:42Z</time>
      </trkpt>
      <trkpt lat="57.657232000408" lon="14.674340186716">
        <ele>309.4</ele>
        <time>2015-06-12T06:36:43Z</time>
      </trkpt>
      <trkpt lat="57.65718657051" lon="14.67443289053">
        <ele>309</ele>
        <time>2015-06-12T06:36:44Z</time>
      </trkpt>
      <trkpt lat="57.657134099816" lon="14.67454269342">
        <ele>308.8</ele>
        <time>2015-06-12T06:36:45Z</time>
      </trkpt>
      <trkpt lat="57.657087077357" lon="14.674641767478">
        <ele>308.6</ele>
        <time>2015-06-12T06:36:46Z</time>
      </trkpt>
      <trkpt lat="57.657039216708" lon="14.674742266459">
        <ele>308.2</ele>
        <time>2015-06-12T06:36:47Z</time>
      </trkpt>
      <trkpt lat="57.656985572548" lon="14.674855841204">
        <ele>308</ele>
        <time>2015-06-12T06:36:48Z</time>
      </trkpt>
      <trkpt lat="57.656936622252" lon="14.674958268022">
        <ele>307.8</ele>
        <time>2015-06-12T06:36:49Z</time>
      </trkpt>
      <trkpt lat="57.656880044427" lon="14.675075027889">
        <ele>307.4</ele>
        <time>2015-06-12T06:36:50Z</time>
      </trkpt>
      <trkpt lat="57.656826484086" lon="14.675188015901">
        <ele>307</ele>
        <time>2015-06-12T06:36:51Z</time>
      </trkpt>
      <trkpt lat="57.656772253193" lon="14.675304691949">
        <ele>306.6</ele>
        <time>2015-06-12T06:36:52Z</time>
      </trkpt>
      <trkpt lat="57.656720704508" lon="14.675419104884">
        <ele>306.4</ele>
        <time>2015-06-12T06:36:53Z</time>
      </trkpt>
      <trkpt lat="57.656666557434" lon="14.675529829783">
        <ele>306</ele>
        <time>2015-06-12T06:36:54Z</time>
      </trkpt>
      <trkpt lat="57.65660486665" lon="14.675659581595">
        <ele>305.8</ele>
        <time>2015-06-12T06:36:55Z</time>
      </trkpt>
      <trkpt lat="57.656544349332" lon="14.675777766385">
        <ele>305.6</ele>
        <time>2015-06-12T06:36:56Z</time>
      </trkpt>
      <trkpt lat="57.656481485082" lon="14.675901231772">
        <ele>305.2</ele>
        <time>2015-06-12T06:36:57Z</time>
      </trkpt>
      <trkpt lat="57.65642130304" lon="14.676029307204">
        <ele>304.8</ele>
        <time>2015-06-12T06:36:58Z</time>
      </trkpt>
      <trkpt lat="57.656364054663" lon="14.676155790075">
        <ele>304.6</ele>
        <time>2015-06-12T06:36:59Z</time>
      </trkpt>
      <trkpt lat="57.656302447698" lon="14.676272382304">
        <ele>304.2</ele>
        <time>2015-06-12T06:37:00Z</time>
      </trkpt>
      <trkpt lat="57.656236398326" lon="14.676405822152">
        <ele>304</ele>
        <time>2015-06-12T06:37:01Z</time>
      </trkpt>
      <trkpt lat="57.656171857696" lon="14.676537920896">
        <ele>303.8</ele>
        <time>2015-06-12T06:37:02Z</time>
      </trkpt>
      <trkpt lat="57.656107652342" lon="14.676670606373">
        <ele>303.4</ele>
        <time>2015-06-12T06:37:03Z</time>
      </trkpt>
      <trkpt lat="57.656046967386" lon="14.676797256882">
        <ele>303</ele>
        <time>2015-06-12T06:37:04Z</time>
      </trkpt>
      <trkpt lat="57.655983935498" lon="14.676929439445">
        <ele>302.8</ele>
        <time>2015-06-12T06:37:05Z</time>
      </trkpt>
      <trkpt lat="57.655917215574" lon="14.677071093555">
        <ele>302.4</ele>
        <time>2015-06-12T06:37:06Z</time>
      </trkpt>
      <trkpt lat="57.655853932229" lon="14.677203695213">
        <ele>302</ele>
        <time>2015-06-12T06:37:07Z</time>
      </trkpt>
      <trkpt lat="57.655792073807" lon="14.677333447025">
        <ele>301.8</ele>
        <time>2015-06-12T06:37:08Z</time>
      </trkpt>
      <trkpt lat="57.655732981412" lon="14.677457331507">
        <ele>301.6</ele>
        <time>2015-06-12T06:37:09Z</time>
      </trkpt>
      <trkpt lat="57.655667854049" lon="14.677593872658">
        <ele>301.4</ele>
        <time>2015-06-12T06:37:10Z</time>
      </trkpt>
      <trkpt lat="57.655612533509" lon="14.677711219258">
        <ele>301.4</ele>
        <time>2015-06-12T06:37:11Z</time>
      </trkpt>
      <trkpt lat="57.655548914888" lon="14.677849101513">
        <ele>301.2</ele>
        <time>2015-06-12T06:37:12Z</time>
      </trkpt>
      <trkpt lat="57.65549091214" lon="14.677974662375">
        <ele>301.2</ele>
        <time>2015-06-12T06:37:13Z</time>
      </trkpt>
      <trkpt lat="57.655434418134" lon="14.678091506061">
        <ele>301.2</ele>
        <time>2015-06-12T06:37:14Z</time>
      </trkpt>
      <trkpt lat="57.655372392074" lon="14.678221844606">
        <ele>301.2</ele>
        <time>2015-06-12T06:37:15Z</time>
      </trkpt>
      <trkpt lat="57.655316149525" lon="14.678344974717">
        <ele>301.4</ele>
        <time>2015-06-12T06:37:16Z</time>
      </trkpt>
      <trkpt lat="57.655260074614" lon="14.678469697389">
        <ele>301.4</ele>
        <time>2015-06-12T06:37:17Z</time>
      </trkpt>
      <trkpt lat="57.655201485133" lon="14.678591402577">
        <ele>301.6</ele>
        <time>2015-06-12T06:37:18Z</time>
      </trkpt>
      <trkpt lat="57.655146583688" lon="14.678708246263">
        <ele>301.4</ele>
        <time>2015-06-12T06:37:19Z</time>
      </trkpt>
      <trkpt lat="57.655084892904" lon="14.678837746618">
        <ele>301.4</ele>
        <time>2015-06-12T06:37:20Z</time>
      </trkpt>
      <trkpt lat="57.655024710862" lon="14.678960876729">
        <ele>301.4</ele>
        <time>2015-06-12T06:37:21Z</time>
      </trkpt>
      <trkpt lat="57.654966289019" lon="14.679085515582">
        <ele>301.4</ele>
        <time>2015-06-12T06:37:22Z</time>
      </trkpt>
      <trkpt lat="57.654909040642" lon="14.679210322073">
        <ele>301.4</ele>
        <time>2015-06-12T06:37:23Z</time>
      </trkpt>
      <trkpt lat="57.654856318491" lon="14.679323477723">
        <ele>301.4</ele>
        <time>2015-06-12T06:37:24Z</time>
      </trkpt>
      <trkpt lat="57.654791191128" lon="14.679464377462">
        <ele>301.2</ele>
        <time>2015-06-12T06:37:25Z</time>
      </trkpt>
      <trkpt lat="57.654733775113" lon="14.679587591392">
        <ele>301.4</ele>
        <time>2015-06-12T06:37:26Z</time>
      </trkpt>
      <trkpt lat="57.65467702965" lon="14.679708709847">
        <ele>301.4</ele>
        <time>2015-06-12T06:37:27Z</time>
      </trkpt>
      <trkpt lat="57.654620787101" lon="14.679828990112">
        <ele>301.6</ele>
        <time>2015-06-12T06:37:28Z</time>
      </trkpt>
      <trkpt lat="57.654570998615" lon="14.679935943156">
        <ele>301.6</ele>
        <time>2015-06-12T06:37:29Z</time>
      </trkpt>
      <trkpt lat="57.654508637279" lon="14.680071981393">
        <ele>301.8</ele>
        <time>2015-06-12T06:37:30Z</time>
      </trkpt>
      <trkpt lat="57.654452562368" lon="14.680194105676">
        <ele>302</ele>
        <time>2015-06-12T06:37:31Z</time>
      </trkpt>
      <trkpt lat="57.654396487457" lon="14.680315056493">
        <ele>302.2</ele>
        <time>2015-06-12T06:37:32Z</time>
      </trkpt>
      <trkpt lat="57.654341837469" lon="14.680434498568">
        <ele>302.4</ele>
        <time>2015-06-12T06:37:33Z</time>
      </trkpt>
      <trkpt lat="57.654291043155" lon="14.680546899847">
        <ele>302.6</ele>
        <time>2015-06-12T06:37:34Z</time>
      </trkpt>
      <trkpt lat="57.654239243013" lon="14.680663072981">
        <ele>302.8</ele>
        <time>2015-06-12T06:37:35Z</time>
      </trkpt>
      <trkpt lat="57.654186101767" lon="14.680784442893">
        <ele>303</ele>
        <time>2015-06-12T06:37:36Z</time>
      </trkpt>
      <trkpt lat="57.654137905842" lon="14.680894078145">
        <ele>303.2</ele>
        <time>2015-06-12T06:37:37Z</time>
      </trkpt>
      <trkpt lat="57.65409281122" lon="14.680999522447">
        <ele>303.6</ele>
        <time>2015-06-12T06:37:38Z</time>
      </trkpt>
      <trkpt lat="57.654051153177" lon="14.681098428867">
        <ele>303.8</ele>
        <time>2015-06-12T06:37:39Z</time>
      </trkpt>
      <trkpt lat="57.654006980564" lon="14.681208064119">
        <ele>304.2</ele>
        <time>2015-06-12T06:37:40Z</time>
      </trkpt>
      <trkpt lat="57.653968842919" lon="14.681303869236">
        <ele>304.2</ele>
        <time>2015-06-12T06:37:41Z</time>
      </trkpt>
      <trkpt lat="57.653927101057" lon="14.681412833936">
        <ele>304.2</ele>
        <time>2015-06-12T06:37:42Z</time>
      </trkpt>
      <trkpt lat="57.65388745467" lon="14.681513835831">
        <ele>304.2</ele>
        <time>2015-06-12T06:37:43Z</time>
      </trkpt>
      <trkpt lat="57.653846718636" lon="14.68160612055">
        <ele>304.4</ele>
        <time>2015-06-12T06:37:44Z</time>
      </trkpt>
      <trkpt lat="57.653799528539" lon="14.681704691694">
        <ele>304.4</ele>
        <time>2015-06-12T06:37:45Z</time>
      </trkpt>
      <trkpt lat="57.653753679546" lon="14.681795886766">
        <ele>304.4</ele>
        <time>2015-06-12T06:37:46Z</time>
      </trkpt>
      <trkpt lat="57.653710428942" lon="14.681871491504">
        <ele>304.6</ele>
        <time>2015-06-12T06:37:47Z</time>
      </trkpt>
      <trkpt lat="57.653654689307" lon="14.681952209201">
        <ele>304.6</ele>
        <time>2015-06-12T06:37:48Z</time>
      </trkpt>
      <trkpt lat="57.653602553889" lon="14.682017085107">
        <ele>304.6</ele>
        <time>2015-06-12T06:37:49Z</time>
      </trkpt>
      <trkpt lat="57.653542790942" lon="14.682087325429">
        <ele>304.6</ele>
        <time>2015-06-12T06:37:50Z</time>
      </trkpt>
      <trkpt lat="57.653485794022" lon="14.682155637914">
        <ele>304.6</ele>
        <time>2015-06-12T06:37:51Z</time>
      </trkpt>
      <trkpt lat="57.653429216197" lon="14.682222776933">
        <ele>304.6</ele>
        <time>2015-06-12T06:37:52Z</time>
      </trkpt>
      <trkpt lat="57.653375655856" lon="14.682284551536">
        <ele>304.6</ele>
        <time>2015-06-12T06:37:53Z</time>
      </trkpt>
      <trkpt lat="57.653316814918" lon="14.682354456582">
        <ele>304.6</ele>
        <time>2015-06-12T06:37:54Z</time>
      </trkpt>
      <trkpt lat="57.653257303428" lon="14.682426121827">
        <ele>304.6</ele>
        <time>2015-06-12T06:37:55Z</time>
      </trkpt>
      <trkpt lat="57.653199468318" lon="14.682495859235">
        <ele>304.6</ele>
        <time>2015-06-12T06:37:56Z</time>
      </trkpt>
      <trkpt lat="57.653141717027" lon="14.682564506996">
        <ele>304.4</ele>
        <time>2015-06-12T06:37:57Z</time>
      </trkpt>
      <trkpt lat="57.653083462822" lon="14.682633406214">
        <ele>304.4</ele>
        <time>2015-06-12T06:37:58Z</time>
      </trkpt>
      <trkpt lat="57.653025376255" lon="14.68270331126">
        <ele>304.4</ele>
        <time>2015-06-12T06:37:59Z</time>
      </trkpt>
      <trkpt lat="57.652968463154" lon="14.682764750587">
        <ele>304.6</ele>
        <time>2015-06-12T06:38:00Z</time>
      </trkpt>
      <trkpt lat="57.652905515085" lon="14.682837002565">
        <ele>304.8</ele>
        <time>2015-06-12T06:38:01Z</time>
      </trkpt>
      <trkpt lat="57.6528455845" lon="14.682908164896">
        <ele>304.8</ele>
        <time>2015-06-12T06:38:02Z</time>
      </trkpt>
      <trkpt lat="57.652786240648" lon="14.682977818485">
        <ele>305</ele>
        <time>2015-06-12T06:38:03Z</time>
      </trkpt>
      <trkpt lat="57.652729243728" lon="14.683046298608">
        <ele>305</ele>
        <time>2015-06-12T06:38:04Z</time>
      </trkpt>
      <trkpt lat="57.652669396962" lon="14.683119975509">
        <ele>305</ele>
        <time>2015-06-12T06:38:05Z</time>
      </trkpt>
      <trkpt lat="57.652604772513" lon="14.683199184464">
        <ele>305</ele>
        <time>2015-06-12T06:38:06Z</time>
      </trkpt>
      <trkpt lat="57.652543500824" lon="14.683273448098">
        <ele>304.8</ele>
        <time>2015-06-12T06:38:07Z</time>
      </trkpt>
      <trkpt lat="57.652481726221" lon="14.683347544094">
        <ele>305</ele>
        <time>2015-06-12T06:38:08Z</time>
      </trkpt>
      <trkpt lat="57.652422801464" lon="14.683417784416">
        <ele>305</ele>
        <time>2015-06-12T06:38:09Z</time>
      </trkpt>
      <trkpt lat="57.652355830083" lon="14.683498585932">
        <ele>305</ele>
        <time>2015-06-12T06:38:10Z</time>
      </trkpt>
      <trkpt lat="57.652298749344" lon="14.683566814598">
        <ele>305</ele>
        <time>2015-06-12T06:38:11Z</time>
      </trkpt>
      <trkpt lat="57.65223119123" lon="14.683647616114">
        <ele>305</ele>
        <time>2015-06-12T06:38:12Z</time>
      </trkpt>
      <trkpt lat="57.652170254817" lon="14.683720622463">
        <ele>305</ele>
        <time>2015-06-12T06:38:13Z</time>
      </trkpt>
      <trkpt lat="57.652109569861" lon="14.683792371527">
        <ele>305</ele>
        <time>2015-06-12T06:38:14Z</time>
      </trkpt>
      <trkpt lat="57.652042095566" lon="14.683870490835">
        <ele>305</ele>
        <time>2015-06-12T06:38:15Z</time>
      </trkpt>
      <trkpt lat="57.651981745886" lon="14.683939390053">
        <ele>305</ele>
        <time>2015-06-12T06:38:16Z</time>
      </trkpt>
      <trkpt lat="57.651918127265" lon="14.684012647859">
        <ele>305</ele>
        <time>2015-06-12T06:38:17Z</time>
      </trkpt>
      <trkpt lat="57.651852916083" lon="14.684090180434">
        <ele>304.8</ele>
        <time>2015-06-12T06:38:18Z</time>
      </trkpt>
      <trkpt lat="57.651790973842" lon="14.684165701353">
        <ele>304.6</ele>
        <time>2015-06-12T06:38:19Z</time>
      </trkpt>
      <trkpt lat="57.651722493719" lon="14.684249017439">
        <ele>304.6</ele>
        <time>2015-06-12T06:38:20Z</time>
      </trkpt>
      <trkpt lat="57.651657198718" lon="14.684326214738">
        <ele>304.4</ele>
        <time>2015-06-12T06:38:21Z</time>
      </trkpt>
      <trkpt lat="57.651591316984" lon="14.684405004598">
        <ele>304.2</ele>
        <time>2015-06-12T06:38:22Z</time>
      </trkpt>
      <trkpt lat="57.651531134942" lon="14.684478765318">
        <ele>304.2</ele>
        <time>2015-06-12T06:38:23Z</time>
      </trkpt>
      <trkpt lat="57.651462822457" lon="14.684562668137">
        <ele>304</ele>
        <time>2015-06-12T06:38:24Z</time>
      </trkpt>
      <trkpt lat="57.651391911583" lon="14.684650594268">
        <ele>304</ele>
        <time>2015-06-12T06:38:25Z</time>
      </trkpt>
      <trkpt lat="57.651323934374" lon="14.684731228146">
        <ele>303.8</ele>
        <time>2015-06-12T06:38:26Z</time>
      </trkpt>
      <trkpt lat="57.651254951337" lon="14.68481303549">
        <ele>303.6</ele>
        <time>2015-06-12T06:38:27Z</time>
      </trkpt>
      <trkpt lat="57.65118680649" lon="14.684892076807">
        <ele>303.4</ele>
        <time>2015-06-12T06:38:28Z</time>
      </trkpt>
      <trkpt lat="57.651125031887" lon="14.684963993509">
        <ele>303.2</ele>
        <time>2015-06-12T06:38:29Z</time>
      </trkpt>
      <trkpt lat="57.651047415493" lon="14.685054937124">
        <ele>303.2</ele>
        <time>2015-06-12T06:38:30Z</time>
      </trkpt>
      <trkpt lat="57.650978600094" lon="14.685135235726">
        <ele>303</ele>
        <time>2015-06-12T06:38:31Z</time>
      </trkpt>
      <trkpt lat="57.650909700876" lon="14.685217462165">
        <ele>302.8</ele>
        <time>2015-06-12T06:38:32Z</time>
      </trkpt>
      <trkpt lat="57.65080626823" lon="14.685342101018">
        <ele>302.6</ele>
        <time>2015-06-12T06:38:33Z</time>
      </trkpt>
      <trkpt lat="57.650757904667" lon="14.685395912816">
        <ele>302.8</ele>
        <time>2015-06-12T06:38:34Z</time>
      </trkpt>
      <trkpt lat="57.650672074011" lon="14.68550286586">
        <ele>302.8</ele>
        <time>2015-06-12T06:38:35Z</time>
      </trkpt>
      <trkpt lat="57.65060258806" lon="14.685585679032">
        <ele>303</ele>
        <time>2015-06-12T06:38:36Z</time>
      </trkpt>
      <trkpt lat="57.650534191756" lon="14.685665642358">
        <ele>303</ele>
        <time>2015-06-12T06:38:37Z</time>
      </trkpt>
      <trkpt lat="57.650467974746" lon="14.685744180761">
        <ele>303.4</ele>
        <time>2015-06-12T06:38:38Z</time>
      </trkpt>
      <trkpt lat="57.650406954514" lon="14.685816768015">
        <ele>303.6</ele>
        <time>2015-06-12T06:38:39Z</time>
      </trkpt>
      <trkpt lat="57.650341659513" lon="14.685893881495">
        <ele>304</ele>
        <time>2015-06-12T06:38:40Z</time>
      </trkpt>
      <trkpt lat="57.650298911823" lon="14.685944005257">
        <ele>304</ele>
        <time>2015-06-12T06:38:41Z</time>
      </trkpt>
      <trkpt lat="57.650222468895" lon="14.686037379623">
        <ele>304.2</ele>
        <time>2015-06-12T06:38:42Z</time>
      </trkpt>
      <trkpt lat="57.650163711776" lon="14.686108961049">
        <ele>304.2</ele>
        <time>2015-06-12T06:38:43Z</time>
      </trkpt>
      <trkpt lat="57.650109397064" lon="14.686171070928">
        <ele>304.4</ele>
        <time>2015-06-12T06:38:44Z</time>
      </trkpt>
      <trkpt lat="57.650049550298" lon="14.686242819992">
        <ele>304.4</ele>
        <time>2015-06-12T06:38:45Z</time>
      </trkpt>
      <trkpt lat="57.649993056292" lon="14.686312054486">
        <ele>304.4</ele>
        <time>2015-06-12T06:38:46Z</time>
      </trkpt>
      <trkpt lat="57.649936729924" lon="14.686376511297">
        <ele>304.4</ele>
        <time>2015-06-12T06:38:47Z</time>
      </trkpt>
      <trkpt lat="57.649874703864" lon="14.686451110207">
        <ele>304.4</ele>
        <time>2015-06-12T06:38:48Z</time>
      </trkpt>
      <trkpt lat="57.649817455487" lon="14.68652126671">
        <ele>304.4</ele>
        <time>2015-06-12T06:38:49Z</time>
      </trkpt>
      <trkpt lat="57.649753250133" lon="14.68659670381">
        <ele>304.4</ele>
        <time>2015-06-12T06:38:50Z</time>
      </trkpt>
      <trkpt lat="57.649694241557" lon="14.686666860313">
        <ele>304.6</ele>
        <time>2015-06-12T06:38:51Z</time>
      </trkpt>
      <trkpt lat="57.649634981524" lon="14.68673835792">
        <ele>304.8</ele>
        <time>2015-06-12T06:38:52Z</time>
      </trkpt>
      <trkpt lat="57.64957915807" lon="14.686809184975">
        <ele>304.8</ele>
        <time>2015-06-12T06:38:53Z</time>
      </trkpt>
      <trkpt lat="57.649519059847" lon="14.686880934039">
        <ele>305</ele>
        <time>2015-06-12T06:38:54Z</time>
      </trkpt>
      <trkpt lat="57.649455860321" lon="14.686955113854">
        <ele>305</ele>
        <time>2015-06-12T06:38:55Z</time>
      </trkpt>
      <trkpt lat="57.649397019383" lon="14.687028287841">
        <ele>305</ele>
        <time>2015-06-12T06:38:56Z</time>
      </trkpt>
      <trkpt lat="57.649337591712" lon="14.687101797104">
        <ele>305</ele>
        <time>2015-06-12T06:38:57Z</time>
      </trkpt>
      <trkpt lat="57.649274476005" lon="14.687178491489">
        <ele>305</ele>
        <time>2015-06-12T06:38:58Z</time>
      </trkpt>
      <trkpt lat="57.649220580388" lon="14.687245798146">
        <ele>305.2</ele>
        <time>2015-06-12T06:38:59Z</time>
      </trkpt>
      <trkpt lat="57.649154111921" lon="14.687329365689">
        <ele>305.8</ele>
        <time>2015-06-12T06:39:00Z</time>
      </trkpt>
      <trkpt lat="57.649095354802" lon="14.687402539676">
        <ele>306</ele>
        <time>2015-06-12T06:39:01Z</time>
      </trkpt>
      <trkpt lat="57.649034921303" lon="14.687476300396">
        <ele>306.2</ele>
        <time>2015-06-12T06:39:02Z</time>
      </trkpt>
      <trkpt lat="57.648974152528" lon="14.687549222926">
        <ele>306.4</ele>
        <time>2015-06-12T06:39:03Z</time>
      </trkpt>
      <trkpt lat="57.648917658522" lon="14.687618792696">
        <ele>306.8</ele>
        <time>2015-06-12T06:39:04Z</time>
      </trkpt>
      <trkpt lat="57.648858985222" lon="14.687694145977">
        <ele>307.8</ele>
        <time>2015-06-12T06:39:05Z</time>
      </trkpt>
      <trkpt lat="57.648798635542" lon="14.687770337448">
        <ele>308.2</ele>
        <time>2015-06-12T06:39:06Z</time>
      </trkpt>
      <trkpt lat="57.648737196215" lon="14.687845020177">
        <ele>308.6</ele>
        <time>2015-06-12T06:39:07Z</time>
      </trkpt>
      <trkpt lat="57.648674415784" lon="14.687921295467">
        <ele>308.6</ele>
        <time>2015-06-12T06:39:08Z</time>
      </trkpt>
      <trkpt lat="57.648615826303" lon="14.687990697599">
        <ele>308.6</ele>
        <time>2015-06-12T06:39:09Z</time>
      </trkpt>
      <trkpt lat="57.648547765275" lon="14.688073426952">
        <ele>308.6</ele>
        <time>2015-06-12T06:39:10Z</time>
      </trkpt>
      <trkpt lat="57.648490265441" lon="14.688143080541">
        <ele>308.8</ele>
        <time>2015-06-12T06:39:11Z</time>
      </trkpt>
      <trkpt lat="57.64842664682" lon="14.688220864573">
        <ele>309.2</ele>
        <time>2015-06-12T06:39:12Z</time>
      </trkpt>
      <trkpt lat="57.648366632416" lon="14.688293703284">
        <ele>309.4</ele>
        <time>2015-06-12T06:39:13Z</time>
      </trkpt>
      <trkpt lat="57.648306953288" lon="14.688367715461">
        <ele>309.6</ele>
        <time>2015-06-12T06:39:14Z</time>
      </trkpt>
      <trkpt lat="57.648249453454" lon="14.688431585539">
        <ele>309.4</ele>
        <time>2015-06-12T06:39:15Z</time>
      </trkpt>
      <trkpt lat="57.648189271412" lon="14.688507357915">
        <ele>309</ele>
        <time>2015-06-12T06:39:16Z</time>
      </trkpt>
      <trkpt lat="57.648126239524" lon="14.688582292101">
        <ele>309</ele>
        <time>2015-06-12T06:39:17Z</time>
      </trkpt>
      <trkpt lat="57.648059854876" lon="14.68866032759">
        <ele>309.2</ele>
        <time>2015-06-12T06:39:18Z</time>
      </trkpt>
      <trkpt lat="57.648000762481" lon="14.688729394446">
        <ele>309</ele>
        <time>2015-06-12T06:39:19Z</time>
      </trkpt>
      <trkpt lat="57.647932785272" lon="14.688807094659">
        <ele>309.2</ele>
        <time>2015-06-12T06:39:20Z</time>
      </trkpt>
      <trkpt lat="57.647870759212" lon="14.688876329153">
        <ele>309.2</ele>
        <time>2015-06-12T06:39:21Z</time>
      </trkpt>
      <trkpt lat="57.647813846111" lon="14.68894698857">
        <ele>309.2</ele>
        <time>2015-06-12T06:39:22Z</time>
      </trkpt>
      <trkpt lat="57.647752909698" lon="14.689021419842">
        <ele>308.8</ele>
        <time>2015-06-12T06:39:23Z</time>
      </trkpt>
      <trkpt lat="57.647688704344" lon="14.68909786277">
        <ele>308.6</ele>
        <time>2015-06-12T06:39:24Z</time>
      </trkpt>
      <trkpt lat="57.647620643316" lon="14.689176401173">
        <ele>308.4</ele>
        <time>2015-06-12T06:39:25Z</time>
      </trkpt>
      <trkpt lat="57.647558030523" lon="14.689254688119">
        <ele>308.2</ele>
        <time>2015-06-12T06:39:26Z</time>
      </trkpt>
      <trkpt lat="57.647494830997" lon="14.689330460495">
        <ele>308</ele>
        <time>2015-06-12T06:39:27Z</time>
      </trkpt>
      <trkpt lat="57.647433643127" lon="14.68940464031">
        <ele>308</ele>
        <time>2015-06-12T06:39:28Z</time>
      </trkpt>
      <trkpt lat="57.647382345899" lon="14.689470438225">
        <ele>308</ele>
        <time>2015-06-12T06:39:29Z</time>
      </trkpt>
      <trkpt lat="57.647311435025" lon="14.689568003541">
        <ele>308</ele>
        <time>2015-06-12T06:39:30Z</time>
      </trkpt>
      <trkpt lat="57.647255276295" lon="14.689657354595">
        <ele>308</ele>
        <time>2015-06-12T06:39:31Z</time>
      </trkpt>
      <trkpt lat="57.647196519176" lon="14.689739245758">
        <ele>307.8</ele>
        <time>2015-06-12T06:39:32Z</time>
      </trkpt>
      <trkpt lat="57.647130134528" lon="14.68979188409">
        <ele>307.8</ele>
        <time>2015-06-12T06:39:33Z</time>
      </trkpt>
      <trkpt lat="57.647066180631" lon="14.68980445694">
        <ele>307.8</ele>
        <time>2015-06-12T06:39:34Z</time>
      </trkpt>
      <trkpt lat="57.647005244218" lon="14.689804792216">
        <ele>307.6</ele>
        <time>2015-06-12T06:39:35Z</time>
      </trkpt>
      <trkpt lat="57.646935590629" lon="14.689856676177">
        <ele>307.4</ele>
        <time>2015-06-12T06:39:36Z</time>
      </trkpt>
      <trkpt lat="57.646888316713" lon="14.689958516262">
        <ele>307.2</ele>
        <time>2015-06-12T06:39:37Z</time>
      </trkpt>
      <trkpt lat="57.646841713349" lon="14.690068067695">
        <ele>306.8</ele>
        <time>2015-06-12T06:39:38Z</time>
      </trkpt>
      <trkpt lat="57.64678714718" lon="14.690160771509">
        <ele>306.6</ele>
        <time>2015-06-12T06:39:39Z</time>
      </trkpt>
      <trkpt lat="57.646720594894" lon="14.690250541658">
        <ele>306.2</ele>
        <time>2015-06-12T06:39:40Z</time>
      </trkpt>
      <trkpt lat="57.646662424508" lon="14.690323045093">
        <ele>306</ele>
        <time>2015-06-12T06:39:41Z</time>
      </trkpt>
      <trkpt lat="57.646586652132" lon="14.690411474138">
        <ele>305.8</ele>
        <time>2015-06-12T06:39:42Z</time>
      </trkpt>
      <trkpt lat="57.646517082362" lon="14.690492862387">
        <ele>305.6</ele>
        <time>2015-06-12T06:39:43Z</time>
      </trkpt>
      <trkpt lat="57.646453715198" lon="14.690566623107">
        <ele>305.4</ele>
        <time>2015-06-12T06:39:44Z</time>
      </trkpt>
      <trkpt lat="57.646386743817" lon="14.690645496786">
        <ele>305.4</ele>
        <time>2015-06-12T06:39:45Z</time>
      </trkpt>
      <trkpt lat="57.646317509323" lon="14.690723532275">
        <ele>305.2</ele>
        <time>2015-06-12T06:39:46Z</time>
      </trkpt>
      <trkpt lat="57.646269397217" lon="14.690776841159">
        <ele>305.4</ele>
        <time>2015-06-12T06:39:47Z</time>
      </trkpt>
      <trkpt lat="57.646182979828" lon="14.690868874421">
        <ele>305.4</ele>
        <time>2015-06-12T06:39:48Z</time>
      </trkpt>
      <trkpt lat="57.646116511361" lon="14.690934420879">
        <ele>305.2</ele>
        <time>2015-06-12T06:39:49Z</time>
      </trkpt>
      <trkpt lat="57.646045181392" lon="14.691006169943">
        <ele>305.2</ele>
        <time>2015-06-12T06:39:50Z</time>
      </trkpt>
      <trkpt lat="57.645977371821" lon="14.691076242627">
        <ele>305.2</ele>
        <time>2015-06-12T06:39:51Z</time>
      </trkpt>
      <trkpt lat="57.645908137327" lon="14.691146231492">
        <ele>305.2</ele>
        <time>2015-06-12T06:39:52Z</time>
      </trkpt>
      <trkpt lat="57.645846111267" lon="14.691207084086">
        <ele>305.2</ele>
        <time>2015-06-12T06:39:53Z</time>
      </trkpt>
      <trkpt lat="57.645776457678" lon="14.691271540897">
        <ele>305</ele>
        <time>2015-06-12T06:39:54Z</time>
      </trkpt>
      <trkpt lat="57.645705714442" lon="14.691337925545">
        <ele>305</ele>
        <time>2015-06-12T06:39:55Z</time>
      </trkpt>
      <trkpt lat="57.645636396129" lon="14.69140539984">
        <ele>305</ele>
        <time>2015-06-12T06:39:56Z</time>
      </trkpt>
      <trkpt lat="57.645568838015" lon="14.691470694841">
        <ele>305</ele>
        <time>2015-06-12T06:39:57Z</time>
      </trkpt>
      <trkpt lat="57.645499100607" lon="14.691534648738">
        <ele>305.2</ele>
        <time>2015-06-12T06:39:58Z</time>
      </trkpt>
      <trkpt lat="57.645442606601" lon="14.6915847725">
        <ele>305.2</ele>
        <time>2015-06-12T06:39:59Z</time>
      </trkpt>
      <trkpt lat="57.645361888904" lon="14.691659119953">
        <ele>305.2</ele>
        <time>2015-06-12T06:40:00Z</time>
      </trkpt>
      <trkpt lat="57.64529181622" lon="14.691716033054">
        <ele>305.2</ele>
        <time>2015-06-12T06:40:01Z</time>
      </trkpt>
      <trkpt lat="57.645218390776" lon="14.691772862336">
        <ele>305.2</ele>
        <time>2015-06-12T06:40:02Z</time>
      </trkpt>
      <trkpt lat="57.645146138798" lon="14.691835475129">
        <ele>305.2</ele>
        <time>2015-06-12T06:40:03Z</time>
      </trkpt>
      <trkpt lat="57.645080173245" lon="14.691891047126">
        <ele>305</ele>
        <time>2015-06-12T06:40:04Z</time>
      </trkpt>
      <trkpt lat="57.645009094733" lon="14.691947205856">
        <ele>305</ele>
        <time>2015-06-12T06:40:05Z</time>
      </trkpt>
      <trkpt lat="57.644929299045" lon="14.692011159753">
        <ele>305</ele>
        <time>2015-06-12T06:40:06Z</time>
      </trkpt>
      <trkpt lat="57.644854783954" lon="14.692074610736">
        <ele>304.8</ele>
        <time>2015-06-12T06:40:07Z</time>
      </trkpt>
      <trkpt lat="57.644779933587" lon="14.692135044235">
        <ele>305</ele>
        <time>2015-06-12T06:40:08Z</time>
      </trkpt>
      <trkpt lat="57.644710782912" lon="14.692192627888">
        <ele>305</ele>
        <time>2015-06-12T06:40:09Z</time>
      </trkpt>
      <trkpt lat="57.644631490138" lon="14.692255492138">
        <ele>305</ele>
        <time>2015-06-12T06:40:10Z</time>
      </trkpt>
      <trkpt lat="57.644560830721" lon="14.6923056159">
        <ele>305</ele>
        <time>2015-06-12T06:40:11Z</time>
      </trkpt>
      <trkpt lat="57.644481705585" lon="14.692353895644">
        <ele>305</ele>
        <time>2015-06-12T06:40:12Z</time>
      </trkpt>
      <trkpt lat="57.644408196322" lon="14.692405863424">
        <ele>304.8</ele>
        <time>2015-06-12T06:40:13Z</time>
      </trkpt>
      <trkpt lat="57.644340554389" lon="14.692455903367">
        <ele>304.8</ele>
        <time>2015-06-12T06:40:14Z</time>
      </trkpt>
      <trkpt lat="57.644263943823" lon="14.692514744305">
        <ele>304.8</ele>
        <time>2015-06-12T06:40:15Z</time>
      </trkpt>
      <trkpt lat="57.644191188931" lon="14.692569478112">
        <ele>304.6</ele>
        <time>2015-06-12T06:40:16Z</time>
      </trkpt>
      <trkpt lat="57.644122373532" lon="14.692627061765">
        <ele>304.4</ele>
        <time>2015-06-12T06:40:17Z</time>
      </trkpt>
      <trkpt lat="57.644044254224" lon="14.69269285968">
        <ele>304.2</ele>
        <time>2015-06-12T06:40:18Z</time>
      </trkpt>
      <trkpt lat="57.643976025558" lon="14.692751868256">
        <ele>304</ele>
        <time>2015-06-12T06:40:19Z</time>
      </trkpt>
      <trkpt lat="57.643906204331" lon="14.692812050298">
        <ele>304</ele>
        <time>2015-06-12T06:40:20Z</time>
      </trkpt>
      <trkpt lat="57.643838646217" lon="14.692853037789">
        <ele>304</ele>
        <time>2015-06-12T06:40:21Z</time>
      </trkpt>
      <trkpt lat="57.643771171922" lon="14.692914644754">
        <ele>304.2</ele>
        <time>2015-06-12T06:40:22Z</time>
      </trkpt>
      <trkpt lat="57.643713085355" lon="14.692975413529">
        <ele>304.4</ele>
        <time>2015-06-12T06:40:23Z</time>
      </trkpt>
      <trkpt lat="57.643654328236" lon="14.693043726014">
        <ele>304.4</ele>
        <time>2015-06-12T06:40:24Z</time>
      </trkpt>
      <trkpt lat="57.643606886682" lon="14.693139531131">
        <ele>304.2</ele>
        <time>2015-06-12T06:40:25Z</time>
      </trkpt>
      <trkpt lat="57.643586770122" lon="14.693258889387">
        <ele>304</ele>
        <time>2015-06-12T06:40:26Z</time>
      </trkpt>
      <trkpt lat="57.643600684076" lon="14.693392664511">
        <ele>304.2</ele>
        <time>2015-06-12T06:40:27Z</time>
      </trkpt>
      <trkpt lat="57.643640079006" lon="14.693503557048">
        <ele>304.2</ele>
        <time>2015-06-12T06:40:28Z</time>
      </trkpt>
      <trkpt lat="57.643676875547" lon="14.69359056117">
        <ele>304.2</ele>
        <time>2015-06-12T06:40:29Z</time>
      </trkpt>
      <trkpt lat="57.643722975997" lon="14.693698100947">
        <ele>304.2</ele>
        <time>2015-06-12T06:40:30Z</time>
      </trkpt>
      <trkpt lat="57.643763712031" lon="14.69381016695">
        <ele>304.2</ele>
        <time>2015-06-12T06:40:31Z</time>
      </trkpt>
      <trkpt lat="57.643802101133" lon="14.693920388935">
        <ele>304.2</ele>
        <time>2015-06-12T06:40:32Z</time>
      </trkpt>
      <trkpt lat="57.643837137475" lon="14.694035137146">
        <ele>304.2</ele>
        <time>2015-06-12T06:40:33Z</time>
      </trkpt>
      <trkpt lat="57.643869240152" lon="14.694144688579">
        <ele>304.2</ele>
        <time>2015-06-12T06:40:34Z</time>
      </trkpt>
      <trkpt lat="57.643898409164" lon="14.694259017695">
        <ele>304.2</ele>
        <time>2015-06-12T06:40:35Z</time>
      </trkpt>
      <trkpt lat="57.643928332547" lon="14.694388015136">
        <ele>304.2</ele>
        <time>2015-06-12T06:40:36Z</time>
      </trkpt>
      <trkpt lat="57.643953478247" lon="14.694509636505">
        <ele>304</ele>
        <time>2015-06-12T06:40:37Z</time>
      </trkpt>
      <trkpt lat="57.643980300327" lon="14.694631425512">
        <ele>304</ele>
        <time>2015-06-12T06:40:38Z</time>
      </trkpt>
      <trkpt lat="57.64400016543" lon="14.694751035225">
        <ele>304</ele>
        <time>2015-06-12T06:40:39Z</time>
      </trkpt>
      <trkpt lat="57.644019779076" lon="14.694881038494">
        <ele>304</ele>
        <time>2015-06-12T06:40:40Z</time>
      </trkpt>
      <trkpt lat="57.644034195944" lon="14.695003330415">
        <ele>303.8</ele>
        <time>2015-06-12T06:40:41Z</time>
      </trkpt>
      <trkpt lat="57.64404542769" lon="14.695140458299">
        <ele>303.6</ele>
        <time>2015-06-12T06:40:42Z</time>
      </trkpt>
      <trkpt lat="57.64405045683" lon="14.695275742165">
        <ele>303.4</ele>
        <time>2015-06-12T06:40:43Z</time>
      </trkpt>
      <trkpt lat="57.644054144866" lon="14.695397279715">
        <ele>303.2</ele>
        <time>2015-06-12T06:40:44Z</time>
      </trkpt>
      <trkpt lat="57.644055234513" lon="14.695540023472">
        <ele>303</ele>
        <time>2015-06-12T06:40:45Z</time>
      </trkpt>
      <trkpt lat="57.644051546477" lon="14.695675558795">
        <ele>302.8</ele>
        <time>2015-06-12T06:40:46Z</time>
      </trkpt>
      <trkpt lat="57.644047523165" lon="14.695800532924">
        <ele>302.6</ele>
        <time>2015-06-12T06:40:47Z</time>
      </trkpt>
      <trkpt lat="57.644038303075" lon="14.695948054364">
        <ele>302.4</ele>
        <time>2015-06-12T06:40:48Z</time>
      </trkpt>
      <trkpt lat="57.644027658062" lon="14.696081997126">
        <ele>302.2</ele>
        <time>2015-06-12T06:40:49Z</time>
      </trkpt>
      <trkpt lat="57.64401776742" lon="14.696228848014">
        <ele>302</ele>
        <time>2015-06-12T06:40:50Z</time>
      </trkpt>
      <trkpt lat="57.644006787131" lon="14.696371591771">
        <ele>301.8</ele>
        <time>2015-06-12T06:40:51Z</time>
      </trkpt>
      <trkpt lat="57.643995052471" lon="14.696518107383">
        <ele>301.6</ele>
        <time>2015-06-12T06:40:52Z</time>
      </trkpt>
      <trkpt lat="57.643988179313" lon="14.696644590254">
        <ele>301.6</ele>
        <time>2015-06-12T06:40:53Z</time>
      </trkpt>
      <trkpt lat="57.643973259531" lon="14.696788842753">
        <ele>301.6</ele>
        <time>2015-06-12T06:40:54Z</time>
      </trkpt>
      <trkpt lat="57.64395909412" lon="14.696937621478">
        <ele>302</ele>
        <time>2015-06-12T06:40:55Z</time>
      </trkpt>
      <trkpt lat="57.643950628401" lon="14.697073743534">
        <ele>302.2</ele>
        <time>2015-06-12T06:40:56Z</time>
      </trkpt>
      <trkpt lat="57.64393813937" lon="14.697209278857">
        <ele>302.2</ele>
        <time>2015-06-12T06:40:57Z</time>
      </trkpt>
      <trkpt lat="57.643931350031" lon="14.697342718705">
        <ele>302.2</ele>
        <time>2015-06-12T06:40:58Z</time>
      </trkpt>
      <trkpt lat="57.643931769126" lon="14.697463166608">
        <ele>302.6</ele>
        <time>2015-06-12T06:40:59Z</time>
      </trkpt>
      <trkpt lat="57.643938726103" lon="14.697614376084">
        <ele>303</ele>
        <time>2015-06-12T06:41:00Z</time>
      </trkpt>
      <trkpt lat="57.643956244274" lon="14.697751084873">
        <ele>303.2</ele>
        <time>2015-06-12T06:41:01Z</time>
      </trkpt>
      <trkpt lat="57.643979043042" lon="14.69788377035">
        <ele>303.2</ele>
        <time>2015-06-12T06:41:02Z</time>
      </trkpt>
      <trkpt lat="57.644008631149" lon="14.698019389492">
        <ele>303.4</ele>
        <time>2015-06-12T06:41:03Z</time>
      </trkpt>
      <trkpt lat="57.644038470713" lon="14.698135730264">
        <ele>303.4</ele>
        <time>2015-06-12T06:41:04Z</time>
      </trkpt>
      <trkpt lat="57.644075853987" lon="14.698261291126">
        <ele>303.4</ele>
        <time>2015-06-12T06:41:05Z</time>
      </trkpt>
      <trkpt lat="57.64412254117" lon="14.698387019626">
        <ele>303.6</ele>
        <time>2015-06-12T06:41:06Z</time>
      </trkpt>
      <trkpt lat="57.644168893077" lon="14.698505791149">
        <ele>303.8</ele>
        <time>2015-06-12T06:41:07Z</time>
      </trkpt>
      <trkpt lat="57.644220022667" lon="14.698620790817">
        <ele>303.6</ele>
        <time>2015-06-12T06:41:08Z</time>
      </trkpt>
      <trkpt lat="57.644272409542" lon="14.698718020857">
        <ele>303.8</ele>
        <time>2015-06-12T06:41:09Z</time>
      </trkpt>
      <trkpt lat="57.644333010679" lon="14.698820782951">
        <ele>304</ele>
        <time>2015-06-12T06:41:10Z</time>
      </trkpt>
      <trkpt lat="57.644385900468" lon="14.698910217824">
        <ele>304.2</ele>
        <time>2015-06-12T06:41:11Z</time>
      </trkpt>
      <trkpt lat="57.644442981207" lon="14.69901700323">
        <ele>304.2</ele>
        <time>2015-06-12T06:41:12Z</time>
      </trkpt>
      <trkpt lat="57.644489752209" lon="14.699114065632">
        <ele>304.8</ele>
        <time>2015-06-12T06:41:13Z</time>
      </trkpt>
      <trkpt lat="57.644533170451" lon="14.699206853265">
        <ele>305</ele>
        <time>2015-06-12T06:41:14Z</time>
      </trkpt>
      <trkpt lat="57.644581114919" lon="14.699315901784">
        <ele>305.2</ele>
        <time>2015-06-12T06:41:15Z</time>
      </trkpt>
      <trkpt lat="57.644623862609" lon="14.699416065489">
        <ele>305.2</ele>
        <time>2015-06-12T06:41:16Z</time>
      </trkpt>
      <trkpt lat="57.644670465973" lon="14.69951069714">
        <ele>305.4</ele>
        <time>2015-06-12T06:41:17Z</time>
      </trkpt>
      <trkpt lat="57.644714219491" lon="14.699620080935">
        <ele>305.4</ele>
        <time>2015-06-12T06:41:18Z</time>
      </trkpt>
      <trkpt lat="57.644752943869" lon="14.699725609056">
        <ele>305.2</ele>
        <time>2015-06-12T06:41:19Z</time>
      </trkpt>
      <trkpt lat="57.64479560774" lon="14.699848655348">
        <ele>305</ele>
        <time>2015-06-12T06:41:20Z</time>
      </trkpt>
      <trkpt lat="57.644832069005" lon="14.699970360536">
        <ele>304.8</ele>
        <time>2015-06-12T06:41:21Z</time>
      </trkpt>
      <trkpt lat="57.64486936846" lon="14.700091478991">
        <ele>304.6</ele>
        <time>2015-06-12T06:41:22Z</time>
      </trkpt>
      <trkpt lat="57.644892251047" lon="14.700212094532">
        <ele>304.2</ele>
        <time>2015-06-12T06:41:23Z</time>
      </trkpt>
      <trkpt lat="57.644916390919" lon="14.700341427249">
        <ele>304.2</ele>
        <time>2015-06-12T06:41:24Z</time>
      </trkpt>
      <trkpt lat="57.644942626266" lon="14.700469837957">
        <ele>304</ele>
        <time>2015-06-12T06:41:25Z</time>
      </trkpt>
      <trkpt lat="57.644966263224" lon="14.700587436014">
        <ele>303.8</ele>
        <time>2015-06-12T06:41:26Z</time>
      </trkpt>
      <trkpt lat="57.644986547422" lon="14.70070260332">
        <ele>303.8</ele>
        <time>2015-06-12T06:41:27Z</time>
      </trkpt>
      <trkpt lat="57.645004065593" lon="14.70080653888">
        <ele>303.8</ele>
        <time>2015-06-12T06:41:28Z</time>
      </trkpt>
      <trkpt lat="57.645016638443" lon="14.700874851365">
        <ele>303.6</ele>
        <time>2015-06-12T06:41:29Z</time>
      </trkpt>
      <trkpt lat="57.645022673411" lon="14.700909133336">
        <ele>303.2</ele>
        <time>2015-06-12T06:41:30Z</time>
      </trkpt>
      <trkpt lat="57.645025774714" lon="14.700913575743">
        <ele>303</ele>
        <time>2015-06-12T06:41:31Z</time>
      </trkpt>
      <trkpt lat="57.645027451094" lon="14.70092640005">
        <ele>302.6</ele>
        <time>2015-06-12T06:41:32Z</time>
      </trkpt>
      <trkpt lat="57.645030217121" lon="14.700943080031">
        <ele>302.4</ele>
        <time>2015-06-12T06:41:33Z</time>
      </trkpt>
      <trkpt lat="57.645032899329" lon="14.700968644826">
        <ele>302.4</ele>
        <time>2015-06-12T06:41:34Z</time>
      </trkpt>
      <trkpt lat="57.645034743347" lon="14.701020780244">
        <ele>302.2</ele>
        <time>2015-06-12T06:41:35Z</time>
      </trkpt>
      <trkpt lat="57.645039185754" lon="14.701069227626">
        <ele>302.2</ele>
        <time>2015-06-12T06:41:36Z</time>
      </trkpt>
      <trkpt lat="57.645043544342" lon="14.701117423551">
        <ele>302.2</ele>
        <time>2015-06-12T06:41:37Z</time>
      </trkpt>
      <trkpt lat="57.645034827166" lon="14.701235356884">
        <ele>302.8</ele>
        <time>2015-06-12T06:41:40Z</time>
      </trkpt>
      <trkpt lat="57.645042538514" lon="14.70123904492">
        <ele>302.8</ele>
        <time>2015-06-12T06:41:41Z</time>
      </trkpt>
      <trkpt lat="57.645041867962" lon="14.701257820376">
        <ele>303</ele>
        <time>2015-06-12T06:41:42Z</time>
      </trkpt>
      <trkpt lat="57.645040694496" lon="14.701284810094">
        <ele>303</ele>
        <time>2015-06-12T06:41:43Z</time>
      </trkpt>
      <trkpt lat="57.645045053084" lon="14.701307189767">
        <ele>303</ele>
        <time>2015-06-12T06:41:44Z</time>
      </trkpt>
      <trkpt lat="57.645044969265" lon="14.701355972425">
        <ele>303.2</ele>
        <time>2015-06-12T06:41:45Z</time>
      </trkpt>
      <trkpt lat="57.645026193809" lon="14.701394193889">
        <ele>303.4</ele>
        <time>2015-06-12T06:41:46Z</time>
      </trkpt>
      <trkpt lat="57.645000377557" lon="14.701415735372">
        <ele>303.6</ele>
        <time>2015-06-12T06:41:47Z</time>
      </trkpt>
      <trkpt lat="57.644974812762" lon="14.701425626014">
        <ele>303.6</ele>
        <time>2015-06-12T06:41:48Z</time>
      </trkpt>
      <trkpt lat="57.64495570203" lon="14.701437612131">
        <ele>303.6</ele>
        <time>2015-06-12T06:41:49Z</time>
      </trkpt>
      <trkpt lat="57.644929801959" lon="14.701470636817">
        <ele>303.8</ele>
        <time>2015-06-12T06:41:50Z</time>
      </trkpt>
      <trkpt lat="57.644909014847" lon="14.701514138878">
        <ele>303.8</ele>
        <time>2015-06-12T06:41:51Z</time>
      </trkpt>
      <trkpt lat="57.644885713165" lon="14.701563508269">
        <ele>303.8</ele>
        <time>2015-06-12T06:41:52Z</time>
      </trkpt>
      <trkpt lat="57.644860232189" lon="14.701613380574">
        <ele>303.6</ele>
        <time>2015-06-12T06:41:53Z</time>
      </trkpt>
      <trkpt lat="57.644826788408" lon="14.701661744137">
        <ele>303.6</ele>
        <time>2015-06-12T06:41:54Z</time>
      </trkpt>
      <trkpt lat="57.644784124537" lon="14.701709437148">
        <ele>303.4</ele>
        <time>2015-06-12T06:41:55Z</time>
      </trkpt>
      <trkpt lat="57.644733833137" lon="14.701722596731">
        <ele>303.4</ele>
        <time>2015-06-12T06:41:56Z</time>
      </trkpt>
      <trkpt lat="57.644682284452" lon="14.701708598958">
        <ele>303.2</ele>
        <time>2015-06-12T06:41:57Z</time>
      </trkpt>
      <trkpt lat="57.644628221197" lon="14.701705497655">
        <ele>303</ele>
        <time>2015-06-12T06:41:58Z</time>
      </trkpt>
      <trkpt lat="57.644579606177" lon="14.701718824876">
        <ele>303.2</ele>
        <time>2015-06-12T06:41:59Z</time>
      </trkpt>
      <trkpt lat="57.644517412479" lon="14.701748915897">
        <ele>303.2</ele>
        <time>2015-06-12T06:42:00Z</time>
      </trkpt>
      <trkpt lat="57.644460247921" lon="14.701779006918">
        <ele>303</ele>
        <time>2015-06-12T06:42:01Z</time>
      </trkpt>
      <trkpt lat="57.644402999544" lon="14.701808762663">
        <ele>302.8</ele>
        <time>2015-06-12T06:42:02Z</time>
      </trkpt>
      <trkpt lat="57.644344158606" lon="14.701842122625">
        <ele>302.8</ele>
        <time>2015-06-12T06:42:03Z</time>
      </trkpt>
      <trkpt lat="57.644286491134" lon="14.70187104018">
        <ele>302.6</ele>
        <time>2015-06-12T06:42:04Z</time>
      </trkpt>
      <trkpt lat="57.644226979644" lon="14.701902975219">
        <ele>302.8</ele>
        <time>2015-06-12T06:42:05Z</time>
      </trkpt>
      <trkpt lat="57.644165037403" lon="14.701941615778">
        <ele>302.6</ele>
        <time>2015-06-12T06:42:06Z</time>
      </trkpt>
      <trkpt lat="57.644107202293" lon="14.701975646292">
        <ele>302.8</ele>
        <time>2015-06-12T06:42:07Z</time>
      </trkpt>
      <trkpt lat="57.64404961864" lon="14.702007916607">
        <ele>302.8</ele>
        <time>2015-06-12T06:42:08Z</time>
      </trkpt>
      <trkpt lat="57.643995723023" lon="14.702040186922">
        <ele>302.8</ele>
        <time>2015-06-12T06:42:09Z</time>
      </trkpt>
      <trkpt lat="57.643933864601" lon="14.702073127789">
        <ele>302.6</ele>
        <time>2015-06-12T06:42:10Z</time>
      </trkpt>
      <trkpt lat="57.643880807174" lon="14.702100620421">
        <ele>302.8</ele>
        <time>2015-06-12T06:42:11Z</time>
      </trkpt>
      <trkpt lat="57.643821966236" lon="14.702135489125">
        <ele>302.8</ele>
        <time>2015-06-12T06:42:12Z</time>
      </trkpt>
      <trkpt lat="57.643772345388" lon="14.702190222932">
        <ele>302.8</ele>
        <time>2015-06-12T06:42:13Z</time>
      </trkpt>
      <trkpt lat="57.643750803905" lon="14.7022884588">
        <ele>302.8</ele>
        <time>2015-06-12T06:42:14Z</time>
      </trkpt>
      <trkpt lat="57.643755497769" lon="14.702401195355">
        <ele>303.2</ele>
        <time>2015-06-12T06:42:15Z</time>
      </trkpt>
      <trkpt lat="57.64377133956" lon="14.702498341576">
        <ele>303.4</ele>
        <time>2015-06-12T06:42:16Z</time>
      </trkpt>
      <trkpt lat="57.643785756428" lon="14.70258266349">
        <ele>303.6</ele>
        <time>2015-06-12T06:42:17Z</time>
      </trkpt>
      <trkpt lat="57.643799586563" lon="14.702678887702">
        <ele>303.6</ele>
        <time>2015-06-12T06:42:18Z</time>
      </trkpt>
      <trkpt lat="57.643808387558" lon="14.702765053634">
        <ele>303.8</ele>
        <time>2015-06-12T06:42:19Z</time>
      </trkpt>
      <trkpt lat="57.643819284028" lon="14.702859098552">
        <ele>304.2</ele>
        <time>2015-06-12T06:42:20Z</time>
      </trkpt>
      <trkpt lat="57.64383252743" lon="14.702946773226">
        <ele>304.2</ele>
        <time>2015-06-12T06:42:21Z</time>
      </trkpt>
      <trkpt lat="57.643843675357" lon="14.703033022977">
        <ele>304.4</ele>
        <time>2015-06-12T06:42:22Z</time>
      </trkpt>
      <trkpt lat="57.643856583483" lon="14.703113740674">
        <ele>304.6</ele>
        <time>2015-06-12T06:42:23Z</time>
      </trkpt>
      <trkpt lat="57.643870581256" lon="14.703199655149">
        <ele>304.8</ele>
        <time>2015-06-12T06:42:24Z</time>
      </trkpt>
      <trkpt lat="57.643884579029" lon="14.703289425298">
        <ele>304.8</ele>
        <time>2015-06-12T06:42:25Z</time>
      </trkpt>
      <trkpt lat="57.643899247354" lon="14.703375675049">
        <ele>305</ele>
        <time>2015-06-12T06:42:26Z</time>
      </trkpt>
      <trkpt lat="57.643909473272" lon="14.703463349723">
        <ele>305.2</ele>
        <time>2015-06-12T06:42:27Z</time>
      </trkpt>
      <trkpt lat="57.643915172964" lon="14.703552616958">
        <ele>305.2</ele>
        <time>2015-06-12T06:42:28Z</time>
      </trkpt>
      <trkpt lat="57.643922465217" lon="14.703628054058">
        <ele>305.4</ele>
        <time>2015-06-12T06:42:29Z</time>
      </trkpt>
      <trkpt lat="57.643935289524" lon="14.703724362089">
        <ele>305.6</ele>
        <time>2015-06-12T06:42:30Z</time>
      </trkpt>
      <trkpt lat="57.643942917053" lon="14.703809186917">
        <ele>305.8</ele>
        <time>2015-06-12T06:42:31Z</time>
      </trkpt>
      <trkpt lat="57.643951634229" lon="14.703888228234">
        <ele>306</ele>
        <time>2015-06-12T06:42:32Z</time>
      </trkpt>
      <trkpt lat="57.643962111604" lon="14.70396651518">
        <ele>306</ele>
        <time>2015-06-12T06:42:33Z</time>
      </trkpt>
      <trkpt lat="57.643974516816" lon="14.704036839321">
        <ele>306.2</ele>
        <time>2015-06-12T06:42:34Z</time>
      </trkpt>
      <trkpt lat="57.643986838209" lon="14.704108588385">
        <ele>306.2</ele>
        <time>2015-06-12T06:42:35Z</time>
      </trkpt>
      <trkpt lat="57.644001255077" lon="14.70417690087">
        <ele>306.4</ele>
        <time>2015-06-12T06:42:36Z</time>
      </trkpt>
      <trkpt lat="57.644013157375" lon="14.704244291346">
        <ele>306.4</ele>
        <time>2015-06-12T06:42:37Z</time>
      </trkpt>
      <trkpt lat="57.644025227311" lon="14.704313861116">
        <ele>306.4</ele>
        <time>2015-06-12T06:42:38Z</time>
      </trkpt>
      <trkpt lat="57.644038051618" lon="14.704377060642">
        <ele>306.4</ele>
        <time>2015-06-12T06:42:39Z</time>
      </trkpt>
      <trkpt lat="57.644046601156" lon="14.704438164693">
        <ele>307.2</ele>
        <time>2015-06-12T06:42:40Z</time>
      </trkpt>
      <trkpt lat="57.644040901464" lon="14.704472362845">
        <ele>307</ele>
        <time>2015-06-12T06:42:41Z</time>
      </trkpt>
      <trkpt lat="57.644052468486" lon="14.704519469123">
        <ele>307.4</ele>
        <time>2015-06-12T06:42:42Z</time>
      </trkpt>
      <trkpt lat="57.644059509282" lon="14.70456330646">
        <ele>307.6</ele>
        <time>2015-06-12T06:42:43Z</time>
      </trkpt>
      <trkpt lat="57.644064286965" lon="14.704609323091">
        <ele>307.8</ele>
        <time>2015-06-12T06:42:44Z</time>
      </trkpt>
      <trkpt lat="57.644073590874" lon="14.704664895088">
        <ele>308.2</ele>
        <time>2015-06-12T06:42:45Z</time>
      </trkpt>
      <trkpt lat="57.644082224231" lon="14.704717114325">
        <ele>308.6</ele>
        <time>2015-06-12T06:42:46Z</time>
      </trkpt>
      <trkpt lat="57.644085241715" lon="14.704758017997">
        <ele>308.8</ele>
        <time>2015-06-12T06:42:47Z</time>
      </trkpt>
      <trkpt lat="57.644095048538" lon="14.704826581939">
        <ele>309</ele>
        <time>2015-06-12T06:42:48Z</time>
      </trkpt>
      <trkpt lat="57.644103011343" lon="14.704879052633">
        <ele>309.2</ele>
        <time>2015-06-12T06:42:49Z</time>
      </trkpt>
      <trkpt lat="57.644110890329" lon="14.704937306838">
        <ele>309.4</ele>
        <time>2015-06-12T06:42:50Z</time>
      </trkpt>
      <trkpt lat="57.644116925297" lon="14.704991956826">
        <ele>309.6</ele>
        <time>2015-06-12T06:42:51Z</time>
      </trkpt>
      <trkpt lat="57.644120361876" lon="14.705050797764">
        <ele>309.8</ele>
        <time>2015-06-12T06:42:52Z</time>
      </trkpt>
      <trkpt lat="57.644127821767" lon="14.705104358105">
        <ele>309.8</ele>
        <time>2015-06-12T06:42:53Z</time>
      </trkpt>
      <trkpt lat="57.644135197839" lon="14.705164456328">
        <ele>310</ele>
        <time>2015-06-12T06:42:54Z</time>
      </trkpt>
      <trkpt lat="57.644140562255" lon="14.705227739673">
        <ele>310.2</ele>
        <time>2015-06-12T06:42:55Z</time>
      </trkpt>
      <trkpt lat="57.64415103963" lon="14.705286245335">
        <ele>310.4</ele>
        <time>2015-06-12T06:42:56Z</time>
      </trkpt>
      <trkpt lat="57.644159756806" lon="14.70535036687">
        <ele>310.8</ele>
        <time>2015-06-12T06:42:57Z</time>
      </trkpt>
      <trkpt lat="57.644164534489" lon="14.705411722378">
        <ele>311</ele>
        <time>2015-06-12T06:42:58Z</time>
      </trkpt>
      <trkpt lat="57.644169731267" lon="14.705464193072">
        <ele>311.2</ele>
        <time>2015-06-12T06:42:59Z</time>
      </trkpt>
      <trkpt lat="57.644182387936" lon="14.705528398426">
        <ele>311.6</ele>
        <time>2015-06-12T06:43:00Z</time>
      </trkpt>
      <trkpt lat="57.644193954958" lon="14.705587071726">
        <ele>311.8</ele>
        <time>2015-06-12T06:43:01Z</time>
      </trkpt>
      <trkpt lat="57.6442038456" lon="14.705646080302">
        <ele>312.2</ele>
        <time>2015-06-12T06:43:02Z</time>
      </trkpt>
      <trkpt lat="57.644208288007" lon="14.705705927068">
        <ele>312.4</ele>
        <time>2015-06-12T06:43:03Z</time>
      </trkpt>
      <trkpt lat="57.644216083174" lon="14.705761499065">
        <ele>312.4</ele>
        <time>2015-06-12T06:43:04Z</time>
      </trkpt>
      <trkpt lat="57.64422731492" lon="14.705819837089">
        <ele>312.8</ele>
        <time>2015-06-12T06:43:05Z</time>
      </trkpt>
      <trkpt lat="57.644231422051" lon="14.705884545357">
        <ele>312.8</ele>
        <time>2015-06-12T06:43:06Z</time>
      </trkpt>
      <trkpt lat="57.644231673508" lon="14.705950007996">
        <ele>313</ele>
        <time>2015-06-12T06:43:07Z</time>
      </trkpt>
      <trkpt lat="57.644234104259" lon="14.706016560282">
        <ele>313.2</ele>
        <time>2015-06-12T06:43:08Z</time>
      </trkpt>
      <trkpt lat="57.644232930793" lon="14.706076742324">
        <ele>313.2</ele>
        <time>2015-06-12T06:43:09Z</time>
      </trkpt>
      <trkpt lat="57.644225303264" lon="14.7061441328">
        <ele>313.6</ele>
        <time>2015-06-12T06:43:10Z</time>
      </trkpt>
      <trkpt lat="57.644218011011" lon="14.706199704797">
        <ele>313.8</ele>
        <time>2015-06-12T06:43:11Z</time>
      </trkpt>
      <trkpt lat="57.644216334631" lon="14.706265083617">
        <ele>314</ele>
        <time>2015-06-12T06:43:12Z</time>
      </trkpt>
      <trkpt lat="57.644219435934" lon="14.706325768573">
        <ele>314.4</ele>
        <time>2015-06-12T06:43:13Z</time>
      </trkpt>
      <trkpt lat="57.644221531409" lon="14.706375137964">
        <ele>314.6</ele>
        <time>2015-06-12T06:43:14Z</time>
      </trkpt>
      <trkpt lat="57.644220525581" lon="14.706431799608">
        <ele>314.8</ele>
        <time>2015-06-12T06:43:15Z</time>
      </trkpt>
      <trkpt lat="57.644216753726" lon="14.706485192311">
        <ele>315</ele>
        <time>2015-06-12T06:43:16Z</time>
      </trkpt>
      <trkpt lat="57.644215747898" lon="14.706532550046">
        <ele>315.2</ele>
        <time>2015-06-12T06:43:17Z</time>
      </trkpt>
      <trkpt lat="57.644222788694" lon="14.706579740143">
        <ele>315.6</ele>
        <time>2015-06-12T06:43:18Z</time>
      </trkpt>
      <trkpt lat="57.644240474503" lon="14.706620476177">
        <ele>315.8</ele>
        <time>2015-06-12T06:43:19Z</time>
      </trkpt>
      <trkpt lat="57.644263943823" lon="14.706661547487">
        <ele>315.8</ele>
        <time>2015-06-12T06:43:20Z</time>
      </trkpt>
      <trkpt lat="57.644294118663" lon="14.70668560354">
        <ele>316</ele>
        <time>2015-06-12T06:43:21Z</time>
      </trkpt>
      <trkpt lat="57.644327310987" lon="14.706715443104">
        <ele>316</ele>
        <time>2015-06-12T06:43:22Z</time>
      </trkpt>
      <trkpt lat="57.644361676777" lon="14.706749808894">
        <ele>316.2</ele>
        <time>2015-06-12T06:43:23Z</time>
      </trkpt>
      <trkpt lat="57.644399898241" lon="14.706786856892">
        <ele>316.2</ele>
        <time>2015-06-12T06:43:24Z</time>
      </trkpt>
      <trkpt lat="57.644442645931" lon="14.706825245994">
        <ele>316.2</ele>
        <time>2015-06-12T06:43:25Z</time>
      </trkpt>
      <trkpt lat="57.644486399449" lon="14.70685743249">
        <ele>316.4</ele>
        <time>2015-06-12T06:43:26Z</time>
      </trkpt>
      <trkpt lat="57.64453325427" lon="14.706887355873">
        <ele>316.4</ele>
        <time>2015-06-12T06:43:27Z</time>
      </trkpt>
      <trkpt lat="57.644581114919" lon="14.706922727491">
        <ele>316.4</ele>
        <time>2015-06-12T06:43:28Z</time>
      </trkpt>
      <trkpt lat="57.644627383007" lon="14.70694963339">
        <ele>316.4</ele>
        <time>2015-06-12T06:43:29Z</time>
      </trkpt>
      <trkpt lat="57.644687313592" lon="14.706987854854">
        <ele>316.4</ele>
        <time>2015-06-12T06:43:30Z</time>
      </trkpt>
      <trkpt lat="57.644742466494" lon="14.707019286979">
        <ele>316.4</ele>
        <time>2015-06-12T06:43:31Z</time>
      </trkpt>
      <trkpt lat="57.644798876681" lon="14.707055412968">
        <ele>316.6</ele>
        <time>2015-06-12T06:43:32Z</time>
      </trkpt>
      <trkpt lat="57.644855622144" lon="14.707093466794">
        <ele>316.6</ele>
        <time>2015-06-12T06:43:33Z</time>
      </trkpt>
      <trkpt lat="57.64491043977" lon="14.707126407661">
        <ele>316.8</ele>
        <time>2015-06-12T06:43:34Z</time>
      </trkpt>
      <trkpt lat="57.644968777794" lon="14.707163790935">
        <ele>316.8</ele>
        <time>2015-06-12T06:43:35Z</time>
      </trkpt>
      <trkpt lat="57.645025690895" lon="14.707226739004">
        <ele>316.8</ele>
        <time>2015-06-12T06:43:36Z</time>
      </trkpt>
      <trkpt lat="57.645074054458" lon="14.707303936303">
        <ele>317</ele>
        <time>2015-06-12T06:43:37Z</time>
      </trkpt>
      <trkpt lat="57.645121747469" lon="14.707376775014">
        <ele>317.2</ele>
        <time>2015-06-12T06:43:38Z</time>
      </trkpt>
      <trkpt lat="57.645169608118" lon="14.707441148006">
        <ele>317.2</ele>
        <time>2015-06-12T06:43:39Z</time>
      </trkpt>
      <trkpt lat="57.645224006649" lon="14.707513399984">
        <ele>317.2</ele>
        <time>2015-06-12T06:43:40Z</time>
      </trkpt>
      <trkpt lat="57.645274884782" lon="14.707581544831">
        <ele>317.2</ele>
        <time>2015-06-12T06:43:41Z</time>
      </trkpt>
      <trkpt lat="57.645396254694" lon="14.707686905314">
        <ele>317.4</ele>
        <time>2015-06-12T06:43:43Z</time>
      </trkpt>
      <trkpt lat="57.645457107288" lon="14.707725881149">
        <ele>317.2</ele>
        <time>2015-06-12T06:43:44Z</time>
      </trkpt>
      <trkpt lat="57.645526844696" lon="14.707758067645">
        <ele>317.2</ele>
        <time>2015-06-12T06:43:45Z</time>
      </trkpt>
      <trkpt lat="57.645592139697" lon="14.707796456747">
        <ele>317.2</ele>
        <time>2015-06-12T06:43:46Z</time>
      </trkpt>
      <trkpt lat="57.645639497432" lon="14.707889747294">
        <ele>317.2</ele>
        <time>2015-06-12T06:43:47Z</time>
      </trkpt>
      <trkpt lat="57.64565642887" lon="14.708027629549">
        <ele>317.6</ele>
        <time>2015-06-12T06:43:48Z</time>
      </trkpt>
      <trkpt lat="57.645632791912" lon="14.708137264801">
        <ele>318</ele>
        <time>2015-06-12T06:43:49Z</time>
      </trkpt>
      <trkpt lat="57.645593732258" lon="14.70823206409">
        <ele>318</ele>
        <time>2015-06-12T06:43:50Z</time>
      </trkpt>
      <trkpt lat="57.645563808875" lon="14.708320493135">
        <ele>318.2</ele>
        <time>2015-06-12T06:43:51Z</time>
      </trkpt>
      <trkpt lat="57.645537070614" lon="14.708407581076">
        <ele>318.4</ele>
        <time>2015-06-12T06:43:52Z</time>
      </trkpt>
      <trkpt lat="57.645511673457" lon="14.70848435928">
        <ele>318.6</ele>
        <time>2015-06-12T06:43:53Z</time>
      </trkpt>
      <trkpt lat="57.645483929368" lon="14.708570776669">
        <ele>318.8</ele>
        <time>2015-06-12T06:43:54Z</time>
      </trkpt>
      <trkpt lat="57.645455430908" lon="14.708657613153">
        <ele>319</ele>
        <time>2015-06-12T06:43:55Z</time>
      </trkpt>
      <trkpt lat="57.645427100086" lon="14.70874000723">
        <ele>319</ele>
        <time>2015-06-12T06:43:56Z</time>
      </trkpt>
      <trkpt lat="57.64540078092" lon="14.70882382623">
        <ele>319.2</ele>
        <time>2015-06-12T06:43:57Z</time>
      </trkpt>
      <trkpt lat="57.645374294116" lon="14.708907058497">
        <ele>319.4</ele>
        <time>2015-06-12T06:43:58Z</time>
      </trkpt>
      <trkpt lat="57.64535132771" lon="14.708977801733">
        <ele>319.6</ele>
        <time>2015-06-12T06:43:59Z</time>
      </trkpt>
      <trkpt lat="57.645321404327" lon="14.709067571882">
        <ele>319.8</ele>
        <time>2015-06-12T06:44:00Z</time>
      </trkpt>
      <trkpt lat="57.645295420437" lon="14.709151474701">
        <ele>320.2</ele>
        <time>2015-06-12T06:44:01Z</time>
      </trkpt>
      <trkpt lat="57.645269352728" lon="14.709230264561">
        <ele>320.4</ele>
        <time>2015-06-12T06:44:02Z</time>
      </trkpt>
      <trkpt lat="57.645243117381" lon="14.709311401353">
        <ele>320.6</ele>
        <time>2015-06-12T06:44:03Z</time>
      </trkpt>
      <trkpt lat="57.645217804043" lon="14.709386084082">
        <ele>320.8</ele>
        <time>2015-06-12T06:44:04Z</time>
      </trkpt>
      <trkpt lat="57.645190143773" lon="14.70946504158">
        <ele>321</ele>
        <time>2015-06-12T06:44:05Z</time>
      </trkpt>
      <trkpt lat="57.645163070236" lon="14.709545591639">
        <ele>321</ele>
        <time>2015-06-12T06:44:06Z</time>
      </trkpt>
      <trkpt lat="57.64513758926" lon="14.709629745915">
        <ele>321.2</ele>
        <time>2015-06-12T06:44:07Z</time>
      </trkpt>
      <trkpt lat="57.645113030293" lon="14.709711385621">
        <ele>321.4</ele>
        <time>2015-06-12T06:44:08Z</time>
      </trkpt>
      <trkpt lat="57.645091069715" lon="14.709791516585">
        <ele>321.4</ele>
        <time>2015-06-12T06:44:09Z</time>
      </trkpt>
      <trkpt lat="57.645068606223" lon="14.709877933974">
        <ele>321.8</ele>
        <time>2015-06-12T06:44:10Z</time>
      </trkpt>
      <trkpt lat="57.645048657301" lon="14.709957562024">
        <ele>321.8</ele>
        <time>2015-06-12T06:44:11Z</time>
      </trkpt>
      <trkpt lat="57.645034072795" lon="14.710055378797">
        <ele>322</ele>
        <time>2015-06-12T06:44:12Z</time>
      </trkpt>
      <trkpt lat="57.645030971492" lon="14.710153447027">
        <ele>322</ele>
        <time>2015-06-12T06:44:13Z</time>
      </trkpt>
      <trkpt lat="57.64503616827" lon="14.710247491945">
        <ele>322</ele>
        <time>2015-06-12T06:44:14Z</time>
      </trkpt>
      <trkpt lat="57.645045220722" lon="14.710355618455">
        <ele>322.4</ele>
        <time>2015-06-12T06:44:15Z</time>
      </trkpt>
      <trkpt lat="57.645053267346" lon="14.710454608694">
        <ele>322.6</ele>
        <time>2015-06-12T06:44:16Z</time>
      </trkpt>
      <trkpt lat="57.645059218495" lon="14.71054965944">
        <ele>322.8</ele>
        <time>2015-06-12T06:44:17Z</time>
      </trkpt>
      <trkpt lat="57.64506550492" lon="14.710657869769">
        <ele>322.8</ele>
        <time>2015-06-12T06:44:18Z</time>
      </trkpt>
      <trkpt lat="57.645075311743" lon="14.710750489764">
        <ele>323</ele>
        <time>2015-06-12T06:44:19Z</time>
      </trkpt>
      <trkpt lat="57.645082017263" lon="14.710851659297">
        <ele>323</ele>
        <time>2015-06-12T06:44:20Z</time>
      </trkpt>
      <trkpt lat="57.645089980068" lon="14.7109134339">
        <ele>323.2</ele>
        <time>2015-06-12T06:44:21Z</time>
      </trkpt>
      <trkpt lat="57.645100373624" lon="14.710958193246">
        <ele>323.4</ele>
        <time>2015-06-12T06:44:22Z</time>
      </trkpt>
      <trkpt lat="57.645106827687" lon="14.711015273985">
        <ele>323.4</ele>
        <time>2015-06-12T06:44:23Z</time>
      </trkpt>
      <trkpt lat="57.645110934818" lon="14.711086436316">
        <ele>323.2</ele>
        <time>2015-06-12T06:44:24Z</time>
      </trkpt>
      <trkpt lat="57.645115461044" lon="14.711173859533">
        <ele>323.2</ele>
        <time>2015-06-12T06:44:25Z</time>
      </trkpt>
      <trkpt lat="57.645115209587" lon="14.711266730985">
        <ele>323.2</ele>
        <time>2015-06-12T06:44:26Z</time>
      </trkpt>
      <trkpt lat="57.64511579632" lon="14.711362200826">
        <ele>323.4</ele>
        <time>2015-06-12T06:44:27Z</time>
      </trkpt>
      <trkpt lat="57.645118729985" lon="14.711461023427">
        <ele>323.4</ele>
        <time>2015-06-12T06:44:28Z</time>
      </trkpt>
      <trkpt lat="57.645126441333" lon="14.711549284834">
        <ele>323.4</ele>
        <time>2015-06-12T06:44:29Z</time>
      </trkpt>
      <trkpt lat="57.645137002527" lon="14.711662356665">
        <ele>323.6</ele>
        <time>2015-06-12T06:44:30Z</time>
      </trkpt>
      <trkpt lat="57.645144043323" lon="14.711765286397">
        <ele>323.4</ele>
        <time>2015-06-12T06:44:31Z</time>
      </trkpt>
      <trkpt lat="57.645150497386" lon="14.711872239441">
        <ele>323.4</ele>
        <time>2015-06-12T06:44:32Z</time>
      </trkpt>
      <trkpt lat="57.645161561494" lon="14.711978857209">
        <ele>323.4</ele>
        <time>2015-06-12T06:44:33Z</time>
      </trkpt>
      <trkpt lat="57.645172206507" lon="14.71208522352">
        <ele>323.4</ele>
        <time>2015-06-12T06:44:34Z</time>
      </trkpt>
      <trkpt lat="57.645173463792" lon="14.712128138848">
        <ele>323.4</ele>
        <time>2015-06-12T06:44:35Z</time>
      </trkpt>
      <trkpt lat="57.645182600063" lon="14.712314971399">
        <ele>323.4</ele>
        <time>2015-06-12T06:44:36Z</time>
      </trkpt>
      <trkpt lat="57.645190143773" lon="14.712442627736">
        <ele>323.4</ele>
        <time>2015-06-12T06:44:37Z</time>
      </trkpt>
      <trkpt lat="57.645194083266" lon="14.712563243277">
        <ele>323.4</ele>
        <time>2015-06-12T06:44:38Z</time>
      </trkpt>
      <trkpt lat="57.645194334723" lon="14.712676650384">
        <ele>323.4</ele>
        <time>2015-06-12T06:44:39Z</time>
      </trkpt>
      <trkpt lat="57.645197771302" lon="14.712802881798">
        <ele>323.2</ele>
        <time>2015-06-12T06:44:40Z</time>
      </trkpt>
      <trkpt lat="57.645204979736" lon="14.712919725484">
        <ele>323</ele>
        <time>2015-06-12T06:44:41Z</time>
      </trkpt>
      <trkpt lat="57.645206572297" lon="14.713054254979">
        <ele>322.6</ele>
        <time>2015-06-12T06:44:42Z</time>
      </trkpt>
      <trkpt lat="57.645203051899" lon="14.713184174429">
        <ele>322.2</ele>
        <time>2015-06-12T06:44:43Z</time>
      </trkpt>
      <trkpt lat="57.645200202053" lon="14.713308310368">
        <ele>322</ele>
        <time>2015-06-12T06:44:44Z</time>
      </trkpt>
      <trkpt lat="57.645197519845" lon="14.713452562867">
        <ele>321.6</ele>
        <time>2015-06-12T06:44:45Z</time>
      </trkpt>
      <trkpt lat="57.645190898144" lon="14.713587427638">
        <ele>321.2</ele>
        <time>2015-06-12T06:44:46Z</time>
      </trkpt>
      <trkpt lat="57.645187545384" lon="14.713690776465">
        <ele>321</ele>
        <time>2015-06-12T06:44:47Z</time>
      </trkpt>
      <trkpt lat="57.645180839864" lon="14.713863527424">
        <ele>320.6</ele>
        <time>2015-06-12T06:44:48Z</time>
      </trkpt>
      <trkpt lat="57.645167596462" lon="14.713997470186">
        <ele>320.4</ele>
        <time>2015-06-12T06:44:49Z</time>
      </trkpt>
      <trkpt lat="57.645164243702" lon="14.714143734341">
        <ele>320</ele>
        <time>2015-06-12T06:44:50Z</time>
      </trkpt>
      <trkpt lat="57.645197268388" lon="14.714268624651">
        <ele>320</ele>
        <time>2015-06-12T06:44:51Z</time>
      </trkpt>
      <trkpt lat="57.645258623896" lon="14.714352611289">
        <ele>319.8</ele>
        <time>2015-06-12T06:44:52Z</time>
      </trkpt>
      <trkpt lat="57.645325930553" lon="14.714393934056">
        <ele>319.6</ele>
        <time>2015-06-12T06:44:53Z</time>
      </trkpt>
      <trkpt lat="57.645399691273" lon="14.714433580443">
        <ele>319.6</ele>
        <time>2015-06-12T06:44:54Z</time>
      </trkpt>
      <trkpt lat="57.645473619631" lon="14.714498037254">
        <ele>319.2</ele>
        <time>2015-06-12T06:44:55Z</time>
      </trkpt>
      <trkpt lat="57.645529694542" lon="14.714607756325">
        <ele>318.8</ele>
        <time>2015-06-12T06:44:56Z</time>
      </trkpt>
      <trkpt lat="57.645563557418" lon="14.714742034363">
        <ele>318.4</ele>
        <time>2015-06-12T06:44:57Z</time>
      </trkpt>
      <trkpt lat="57.6455784772" lon="14.714887963242">
        <ele>317.8</ele>
        <time>2015-06-12T06:44:58Z</time>
      </trkpt>
      <trkpt lat="57.645558779735" lon="14.715021570728">
        <ele>317.2</ele>
        <time>2015-06-12T06:44:59Z</time>
      </trkpt>
      <trkpt lat="57.645492646544" lon="14.715145790486">
        <ele>316.8</ele>
        <time>2015-06-12T06:45:00Z</time>
      </trkpt>
      <trkpt lat="57.645430452846" lon="14.715240422137">
        <ele>316.8</ele>
        <time>2015-06-12T06:45:01Z</time>
      </trkpt>
      <trkpt lat="57.645370522261" lon="14.715338322729">
        <ele>317</ele>
        <time>2015-06-12T06:45:02Z</time>
      </trkpt>
      <trkpt lat="57.645307993287" lon="14.715431529457">
        <ele>317</ele>
        <time>2015-06-12T06:45:03Z</time>
      </trkpt>
      <trkpt lat="57.64524990672" lon="14.715518030665">
        <ele>317</ele>
        <time>2015-06-12T06:45:04Z</time>
      </trkpt>
      <trkpt lat="57.645188802669" lon="14.715610902117">
        <ele>317</ele>
        <time>2015-06-12T06:45:05Z</time>
      </trkpt>
      <trkpt lat="57.645126441333" lon="14.715712574564">
        <ele>317.2</ele>
        <time>2015-06-12T06:45:06Z</time>
      </trkpt>
      <trkpt lat="57.645062235979" lon="14.715804607826">
        <ele>317.2</ele>
        <time>2015-06-12T06:45:07Z</time>
      </trkpt>
      <trkpt lat="57.644995767512" lon="14.715891863405">
        <ele>317.4</ele>
        <time>2015-06-12T06:45:08Z</time>
      </trkpt>
      <trkpt lat="57.644932987081" lon="14.715974089844">
        <ele>317.2</ele>
        <time>2015-06-12T06:45:09Z</time>
      </trkpt>
      <trkpt lat="57.644860651284" lon="14.716063524717">
        <ele>317.2</ele>
        <time>2015-06-12T06:45:10Z</time>
      </trkpt>
      <trkpt lat="57.644795943016" lon="14.716143152767">
        <ele>317.2</ele>
        <time>2015-06-12T06:45:11Z</time>
      </trkpt>
      <trkpt lat="57.644723858676" lon="14.716228648147">
        <ele>317.2</ele>
        <time>2015-06-12T06:45:12Z</time>
      </trkpt>
      <trkpt lat="57.644651606698" lon="14.716305258713">
        <ele>317.2</ele>
        <time>2015-06-12T06:45:13Z</time>
      </trkpt>
      <trkpt lat="57.644583629489" lon="14.716378851795">
        <ele>317.4</ele>
        <time>2015-06-12T06:45:14Z</time>
      </trkpt>
      <trkpt lat="57.644509868769" lon="14.716461748786">
        <ele>317.4</ele>
        <time>2015-06-12T06:45:15Z</time>
      </trkpt>
      <trkpt lat="57.644436108049" lon="14.716538443171">
        <ele>317.2</ele>
        <time>2015-06-12T06:45:16Z</time>
      </trkpt>
      <trkpt lat="57.644367795564" lon="14.716608599674">
        <ele>317.2</ele>
        <time>2015-06-12T06:45:17Z</time>
      </trkpt>
      <trkpt lat="57.644288418971" lon="14.716692251036">
        <ele>317.2</ele>
        <time>2015-06-12T06:45:18Z</time>
      </trkpt>
      <trkpt lat="57.644222118142" lon="14.716758635684">
        <ele>317.2</ele>
        <time>2015-06-12T06:45:19Z</time>
      </trkpt>
      <trkpt lat="57.644145339938" lon="14.716838096096">
        <ele>317.2</ele>
        <time>2015-06-12T06:45:20Z</time>
      </trkpt>
      <trkpt lat="57.644071914494" lon="14.716910515712">
        <ele>317</ele>
        <time>2015-06-12T06:45:21Z</time>
      </trkpt>
      <trkpt lat="57.644000333068" lon="14.716985449898">
        <ele>317.2</ele>
        <time>2015-06-12T06:45:22Z</time>
      </trkpt>
      <trkpt lat="57.643934032239" lon="14.717056863686">
        <ele>317.2</ele>
        <time>2015-06-12T06:45:23Z</time>
      </trkpt>
      <trkpt lat="57.643861947899" lon="14.717127020189">
        <ele>317.2</ele>
        <time>2015-06-12T06:45:24Z</time>
      </trkpt>
      <trkpt lat="57.643784834419" lon="14.71720153528">
        <ele>316.8</ele>
        <time>2015-06-12T06:45:25Z</time>
      </trkpt>
      <trkpt lat="57.64371350445" lon="14.717272362335">
        <ele>316.8</ele>
        <time>2015-06-12T06:45:26Z</time>
      </trkpt>
      <trkpt lat="57.643641084834" lon="14.717344111399">
        <ele>316.8</ele>
        <time>2015-06-12T06:45:27Z</time>
      </trkpt>
      <trkpt lat="57.643572353254" lon="14.717410076952">
        <ele>316.8</ele>
        <time>2015-06-12T06:45:28Z</time>
      </trkpt>
      <trkpt lat="57.643509572823" lon="14.71747310884">
        <ele>316.8</ele>
        <time>2015-06-12T06:45:29Z</time>
      </trkpt>
      <trkpt lat="57.64343187261" lon="14.717557682211">
        <ele>316.8</ele>
        <time>2015-06-12T06:45:30Z</time>
      </trkpt>
      <trkpt lat="57.643362219021" lon="14.717630437103">
        <ele>317</ele>
        <time>2015-06-12T06:45:31Z</time>
      </trkpt>
      <trkpt lat="57.643293319803" lon="14.717703694909">
        <ele>317.2</ele>
        <time>2015-06-12T06:45:32Z</time>
      </trkpt>
      <trkpt lat="57.643224336766" lon="14.717777455629">
        <ele>317</ele>
        <time>2015-06-12T06:45:33Z</time>
      </trkpt>
      <trkpt lat="57.643161807792" lon="14.717847612132">
        <ele>316.8</ele>
        <time>2015-06-12T06:45:34Z</time>
      </trkpt>
      <trkpt lat="57.64309492023" lon="14.717924138879">
        <ele>317</ele>
        <time>2015-06-12T06:45:35Z</time>
      </trkpt>
      <trkpt lat="57.643024344632" lon="14.718003347834">
        <ele>317</ele>
        <time>2015-06-12T06:45:36Z</time>
      </trkpt>
      <trkpt lat="57.642960139278" lon="14.718075013079">
        <ele>317</ele>
        <time>2015-06-12T06:45:37Z</time>
      </trkpt>
      <trkpt lat="57.642899286684" lon="14.718149947265">
        <ele>317.2</ele>
        <time>2015-06-12T06:45:38Z</time>
      </trkpt>
      <trkpt lat="57.642852180406" lon="14.718232760437">
        <ele>317.2</ele>
        <time>2015-06-12T06:45:39Z</time>
      </trkpt>
      <trkpt lat="57.642812198743" lon="14.718343233879">
        <ele>317</ele>
        <time>2015-06-12T06:45:40Z</time>
      </trkpt>
      <trkpt lat="57.642796021676" lon="14.718454042597">
        <ele>316.8</ele>
        <time>2015-06-12T06:45:41Z</time>
      </trkpt>
      <trkpt lat="57.642798284789" lon="14.718581698934">
        <ele>316.6</ele>
        <time>2015-06-12T06:45:42Z</time>
      </trkpt>
    </trkseg>
  </trk>
</gpx>